CPA271A VHHH-EHAM
Flight info
| Callsign | CPA271A |
|---|---|
| Flight time | 13h 30m |
| Altitude | 30100 |
| Route | BEKOL A461 SHL W22 TEPID W24 OSNOV G586 QP B330 ELKAL W179 IGNAK/K0939S0950 W179 WFX/K0943S0920 W179 OMBON W195 VIDEK/K0933S0950 W195 LAXAL/K0928S0980 W195 IDOPA W197 ANDIM B215 IBANO G470 AKLAS W192 FKG A368 SARIN/K0915F320 N161 GOMAL/K0902F340 N161 GASBI/N0486F340 N161 LEYLA N644 LAGAS DCT SARPI/N0484F360 UM10 OLUPO UL851 KARDE DCT INB UL746 ODERO DCT OPT DCT ALOXU DCT TUVNU DCT FOGRE DCT PEPIK DCT LIKSA DCT ELMEK DCT VEXIL DCT KATCE DCT APEBE DCT NORKU |
| Aircraft | B77W/H-SDE1E2E3FGHIJ2J3J4J5M1RWXY/LB1D1 |
Departure
| Time | 2026-04-26 14:27 |
|---|---|
| Airport | Hong Kong International Airport (VHHH) |
Arrival
| Time | 2026-04-27 03:57 |
|---|---|
| Airport | Amsterdam Airport Schiphol (EHAM) |
| Time | Latitude | Longitude | Altitude | Speed | Heading |
|---|---|---|---|---|---|
| 2026-04-26 13:51 | 22.31111 | 113.92741 | 42 ft | 0 kts | 295° |
| 2026-04-26 14:16 | 22.31108 | 113.92747 | 40 ft | 2 kts | 294° |
| 2026-04-26 14:16 | 22.31101 | 113.92763 | 39 ft | 2 kts | 297° |
| 2026-04-26 14:16 | 22.31093 | 113.92780 | 40 ft | 2 kts | 287° |
| 2026-04-26 14:17 | 22.31091 | 113.92797 | 38 ft | 2 kts | 271° |
| 2026-04-26 14:17 | 22.31091 | 113.92815 | 39 ft | 2 kts | 261° |
| 2026-04-26 14:17 | 22.31095 | 113.92833 | 37 ft | 2 kts | 248° |
| 2026-04-26 14:17 | 22.31103 | 113.92848 | 38 ft | 2 kts | 230° |
| 2026-04-26 14:18 | 22.31110 | 113.92856 | 39 ft | 2 kts | 216° |
| 2026-04-26 14:19 | 22.31093 | 113.92847 | 38 ft | 11 kts | 206° |
| 2026-04-26 14:20 | 22.30985 | 113.92789 | 41 ft | 19 kts | 206° |
| 2026-04-26 14:20 | 22.30868 | 113.92728 | 41 ft | 19 kts | 213° |
| 2026-04-26 14:20 | 22.30824 | 113.92648 | 41 ft | 19 kts | 247° |
| 2026-04-26 14:20 | 22.30746 | 113.92411 | 42 ft | 27 kts | 250° |
| 2026-04-26 14:21 | 22.30703 | 113.92283 | 42 ft | 27 kts | 250° |
| 2026-04-26 14:21 | 22.30639 | 113.92090 | 42 ft | 27 kts | 250° |
| 2026-04-26 14:21 | 22.30575 | 113.91897 | 42 ft | 27 kts | 250° |
| 2026-04-26 14:21 | 22.30516 | 113.91702 | 42 ft | 27 kts | 252° |
| 2026-04-26 14:22 | 22.30458 | 113.91506 | 41 ft | 27 kts | 252° |
| 2026-04-26 14:22 | 22.30389 | 113.91317 | 41 ft | 27 kts | 248° |
| 2026-04-26 14:22 | 22.30329 | 113.91122 | 41 ft | 27 kts | 251° |
| 2026-04-26 14:22 | 22.30265 | 113.90928 | 42 ft | 27 kts | 250° |
| 2026-04-26 14:23 | 22.30199 | 113.90734 | 42 ft | 27 kts | 250° |
| 2026-04-26 14:23 | 22.30139 | 113.90539 | 41 ft | 27 kts | 252° |
| 2026-04-26 14:23 | 22.30077 | 113.90345 | 41 ft | 27 kts | 250° |
| 2026-04-26 14:23 | 22.30014 | 113.90154 | 41 ft | 27 kts | 250° |
| 2026-04-26 14:24 | 22.29950 | 113.89958 | 41 ft | 27 kts | 250° |
| 2026-04-26 14:24 | 22.29902 | 113.89814 | 41 ft | 14 kts | 250° |
| 2026-04-26 14:24 | 22.29854 | 113.89751 | 41 ft | 10 kts | 198° |
| 2026-04-26 14:24 | 22.29784 | 113.89752 | 41 ft | 10 kts | 168° |
| 2026-04-26 14:25 | 22.29717 | 113.89781 | 41 ft | 10 kts | 158° |
| 2026-04-26 14:25 | 22.29651 | 113.89810 | 42 ft | 8 kts | 158° |
| 2026-04-26 14:25 | 22.29646 | 113.89814 | 42 ft | 4 kts | 141° |
| 2026-04-26 14:25 | 22.29650 | 113.89888 | 41 ft | 0 kts | 69° |
| 2026-04-26 14:26 | 22.29669 | 113.89940 | 41 ft | 33 kts | 69° |
| 2026-04-26 14:26 | 22.29831 | 113.90451 | 40 ft | 109 kts | 71° |
| 2026-04-26 14:26 | 22.30144 | 113.91437 | 42 ft | 172 kts | 71° |
| 2026-04-26 14:27 | 22.30604 | 113.92843 | 115 ft | 214 kts | 71° |
| 2026-04-26 14:27 | 22.31133 | 113.94338 | 817 ft | 211 kts | 69° |
| 2026-04-26 14:27 | 22.31701 | 113.95835 | 1387 ft | 220 kts | 69° |
| 2026-04-26 14:27 | 22.32242 | 113.97357 | 2061 ft | 212 kts | 72° |
| 2026-04-26 14:28 | 22.32688 | 113.98867 | 2575 ft | 212 kts | 74° |
| 2026-04-26 14:28 | 22.33132 | 114.00407 | 2894 ft | 218 kts | 73° |
| 2026-04-26 14:28 | 22.33627 | 114.02056 | 3053 ft | 237 kts | 74° |
| 2026-04-26 14:28 | 22.33846 | 114.03864 | 3122 ft | 254 kts | 103° |
| 2026-04-26 14:29 | 22.33143 | 114.05631 | 3418 ft | 263 kts | 118° |
| 2026-04-26 14:29 | 22.32360 | 114.07456 | 3793 ft | 273 kts | 111° |
| 2026-04-26 14:29 | 22.31687 | 114.09418 | 4353 ft | 280 kts | 110° |
| 2026-04-26 14:29 | 22.31020 | 114.11406 | 4928 ft | 285 kts | 110° |
| 2026-04-26 14:30 | 22.30338 | 114.13414 | 5541 ft | 289 kts | 111° |
| 2026-04-26 14:30 | 22.29631 | 114.15472 | 6175 ft | 292 kts | 111° |
| 2026-04-26 14:30 | 22.28910 | 114.17550 | 6762 ft | 296 kts | 111° |
| 2026-04-26 14:30 | 22.28181 | 114.19641 | 7397 ft | 296 kts | 111° |
| 2026-04-26 14:31 | 22.27453 | 114.21722 | 8006 ft | 297 kts | 111° |
| 2026-04-26 14:31 | 22.26729 | 114.23785 | 8611 ft | 298 kts | 111° |
| 2026-04-26 14:31 | 22.26011 | 114.25920 | 9187 ft | 298 kts | 105° |
| 2026-04-26 14:31 | 22.25913 | 114.28122 | 9546 ft | 305 kts | 75° |
| 2026-04-26 14:32 | 22.26903 | 114.30174 | 10053 ft | 307 kts | 49° |
| 2026-04-26 14:32 | 22.28531 | 114.31637 | 10368 ft | 319 kts | 28° |
| 2026-04-26 14:32 | 22.30714 | 114.32337 | 10479 ft | 336 kts | 2° |
| 2026-04-26 14:32 | 22.33086 | 114.32296 | 10603 ft | 351 kts | 354° |
| 2026-04-26 14:33 | 22.35526 | 114.31753 | 10695 ft | 366 kts | 336° |
| 2026-04-26 14:33 | 22.37656 | 114.30202 | 10887 ft | 378 kts | 314° |
| 2026-04-26 14:33 | 22.39471 | 114.28059 | 11146 ft | 385 kts | 311° |
| 2026-04-26 14:33 | 22.41314 | 114.25959 | 11597 ft | 391 kts | 314° |
| 2026-04-26 14:34 | 22.43156 | 114.24039 | 12224 ft | 392 kts | 316° |
| 2026-04-26 14:34 | 22.45173 | 114.22047 | 12852 ft | 395 kts | 317° |
| 2026-04-26 14:34 | 22.47229 | 114.20071 | 13430 ft | 398 kts | 317° |
| 2026-04-26 14:34 | 22.49326 | 114.18068 | 13986 ft | 402 kts | 317° |
| 2026-04-26 14:35 | 22.51426 | 114.16059 | 14534 ft | 404 kts | 317° |
| 2026-04-26 14:35 | 22.53581 | 114.14110 | 15091 ft | 407 kts | 322° |
| 2026-04-26 14:35 | 22.55947 | 114.12436 | 15627 ft | 410 kts | 329° |
| 2026-04-26 14:35 | 22.58521 | 114.11060 | 16164 ft | 414 kts | 334° |
| 2026-04-26 14:36 | 22.61025 | 114.09826 | 16641 ft | 416 kts | 333° |
| 2026-04-26 14:36 | 22.63667 | 114.08496 | 17170 ft | 419 kts | 333° |
| 2026-04-26 14:36 | 22.66298 | 114.07157 | 17677 ft | 421 kts | 332° |
| 2026-04-26 14:36 | 22.68970 | 114.05791 | 18187 ft | 424 kts | 332° |
| 2026-04-26 14:37 | 22.71645 | 114.04421 | 18619 ft | 427 kts | 332° |
| 2026-04-26 14:37 | 22.74334 | 114.03042 | 19030 ft | 430 kts | 332° |
| 2026-04-26 14:37 | 22.77027 | 114.01660 | 19437 ft | 432 kts | 332° |
| 2026-04-26 14:37 | 22.79766 | 114.00254 | 19881 ft | 434 kts | 332° |
| 2026-04-26 14:38 | 22.82521 | 113.98839 | 20305 ft | 437 kts | 332° |
| 2026-04-26 14:38 | 22.85274 | 113.97424 | 20710 ft | 440 kts | 332° |
| 2026-04-26 14:38 | 22.88013 | 113.96017 | 21106 ft | 442 kts | 332° |
| 2026-04-26 14:38 | 22.89868 | 113.95064 | 21380 ft | 444 kts | 332° |
| 2026-04-26 14:39 | 22.93645 | 113.93106 | 21947 ft | 447 kts | 331° |
| 2026-04-26 14:39 | 22.96407 | 113.91666 | 22342 ft | 449 kts | 331° |
| 2026-04-26 14:39 | 22.99239 | 113.90190 | 22720 ft | 452 kts | 331° |
| 2026-04-26 14:39 | 23.02090 | 113.88705 | 23110 ft | 455 kts | 331° |
| 2026-04-26 14:40 | 23.04938 | 113.87221 | 23493 ft | 457 kts | 331° |
| 2026-04-26 14:40 | 23.07766 | 113.85584 | 23809 ft | 457 kts | 325° |
| 2026-04-26 14:40 | 23.10379 | 113.83625 | 24147 ft | 456 kts | 319° |
| 2026-04-26 14:40 | 23.12782 | 113.81396 | 24481 ft | 454 kts | 313° |
| 2026-04-26 14:41 | 23.15037 | 113.78971 | 24836 ft | 455 kts | 313° |
| 2026-04-26 14:41 | 23.17294 | 113.76568 | 25161 ft | 457 kts | 313° |
| 2026-04-26 14:41 | 23.19572 | 113.74169 | 25466 ft | 459 kts | 313° |
| 2026-04-26 14:41 | 23.21885 | 113.71746 | 25794 ft | 460 kts | 313° |
| 2026-04-26 14:42 | 23.24186 | 113.69340 | 26132 ft | 461 kts | 313° |
| 2026-04-26 14:42 | 23.26145 | 113.67290 | 26406 ft | 462 kts | 313° |
| 2026-04-26 14:42 | 23.28451 | 113.64877 | 26726 ft | 464 kts | 313° |
| 2026-04-26 14:42 | 23.30770 | 113.62448 | 27031 ft | 465 kts | 313° |
| 2026-04-26 14:43 | 23.33110 | 113.59994 | 27335 ft | 467 kts | 313° |
| 2026-04-26 14:43 | 23.35445 | 113.57544 | 27634 ft | 468 kts | 313° |
| 2026-04-26 14:43 | 23.37775 | 113.55099 | 27938 ft | 469 kts | 313° |
| 2026-04-26 14:43 | 23.40158 | 113.52597 | 28209 ft | 471 kts | 313° |
| 2026-04-26 14:44 | 23.42527 | 113.50107 | 28477 ft | 472 kts | 313° |
| 2026-04-26 14:44 | 23.44889 | 113.47614 | 28741 ft | 474 kts | 313° |
| 2026-04-26 14:44 | 23.47257 | 113.45108 | 28986 ft | 475 kts | 313° |
| 2026-04-26 14:44 | 23.49633 | 113.42594 | 29227 ft | 476 kts | 313° |
| 2026-04-26 14:45 | 23.51973 | 113.40118 | 29464 ft | 477 kts | 313° |
| 2026-04-26 14:45 | 23.53589 | 113.38408 | 29613 ft | 478 kts | 313° |
| 2026-04-26 14:45 | 23.56756 | 113.35021 | 29895 ft | 479 kts | 313° |
| 2026-04-26 14:46 | 23.61505 | 113.29901 | 30038 ft | 480 kts | 313° |
| 2026-04-26 14:46 | 23.65899 | 113.24506 | 30055 ft | 475 kts | 303° |
| 2026-04-26 14:47 | 23.69299 | 113.18341 | 30058 ft | 472 kts | 293° |
| 2026-04-26 14:47 | 23.71890 | 113.11872 | 30053 ft | 472 kts | 292° |
| 2026-04-26 14:48 | 23.74592 | 113.05305 | 30061 ft | 471 kts | 292° |
| 2026-04-26 14:48 | 23.78062 | 112.99374 | 30076 ft | 476 kts | 315° |
| 2026-04-26 14:48 | 23.80781 | 112.97187 | 30067 ft | 485 kts | 327° |
| 2026-04-26 14:49 | 23.83900 | 112.95666 | 30053 ft | 494 kts | 339° |
| 2026-04-26 14:49 | 23.90527 | 112.93762 | 30062 ft | 492 kts | 340° |
| 2026-04-26 14:50 | 23.97091 | 112.91575 | 30068 ft | 490 kts | 339° |
| 2026-04-26 14:50 | 24.03613 | 112.89383 | 30067 ft | 491 kts | 339° |
| 2026-04-26 14:51 | 24.09062 | 112.87572 | 30074 ft | 492 kts | 339° |
| 2026-04-26 14:51 | 24.15631 | 112.85391 | 30070 ft | 492 kts | 339° |
| 2026-04-26 14:52 | 24.22183 | 112.83217 | 30073 ft | 492 kts | 339° |
| 2026-04-26 14:52 | 24.28722 | 112.81049 | 30075 ft | 492 kts | 339° |
| 2026-04-26 14:53 | 24.35306 | 112.78860 | 30080 ft | 492 kts | 339° |
| 2026-04-26 14:53 | 24.41852 | 112.76654 | 30074 ft | 489 kts | 335° |
| 2026-04-26 14:53 | 24.44844 | 112.74970 | 30088 ft | 479 kts | 319° |
| 2026-04-26 14:54 | 24.47167 | 112.72374 | 30091 ft | 475 kts | 302° |
| 2026-04-26 14:54 | 24.49927 | 112.65869 | 30066 ft | 474 kts | 282° |
| 2026-04-26 14:55 | 24.50695 | 112.58729 | 30076 ft | 469 kts | 274° |
| 2026-04-26 14:55 | 24.51272 | 112.51623 | 30075 ft | 467 kts | 275° |
| 2026-04-26 14:56 | 24.51910 | 112.44479 | 30082 ft | 467 kts | 275° |
| 2026-04-26 14:56 | 24.52577 | 112.37437 | 30079 ft | 468 kts | 275° |
| 2026-04-26 14:57 | 24.53262 | 112.30304 | 30075 ft | 468 kts | 275° |
| 2026-04-26 14:57 | 24.53942 | 112.23199 | 30081 ft | 468 kts | 275° |
| 2026-04-26 14:58 | 24.54619 | 112.16076 | 30078 ft | 469 kts | 275° |
| 2026-04-26 14:58 | 24.55291 | 112.08956 | 30072 ft | 469 kts | 275° |
| 2026-04-26 14:59 | 24.55955 | 112.01864 | 30072 ft | 469 kts | 275° |
| 2026-04-26 14:59 | 24.56619 | 111.94753 | 30071 ft | 468 kts | 275° |
| 2026-04-26 15:00 | 24.57284 | 111.87601 | 30066 ft | 469 kts | 275° |
| 2026-04-26 15:00 | 24.57943 | 111.80472 | 30067 ft | 469 kts | 275° |
| 2026-04-26 15:01 | 24.58598 | 111.73342 | 30061 ft | 468 kts | 275° |
| 2026-04-26 15:01 | 24.59249 | 111.66232 | 30064 ft | 468 kts | 275° |
| 2026-04-26 15:02 | 24.59887 | 111.59215 | 30041 ft | 468 kts | 275° |
| 2026-04-26 15:02 | 24.60536 | 111.52041 | 30045 ft | 468 kts | 275° |
| 2026-04-26 15:03 | 24.61177 | 111.44920 | 30040 ft | 468 kts | 275° |
| 2026-04-26 15:03 | 24.61812 | 111.37829 | 30034 ft | 468 kts | 275° |
| 2026-04-26 15:04 | 24.62446 | 111.30714 | 30045 ft | 468 kts | 275° |
| 2026-04-26 15:04 | 24.63070 | 111.23609 | 30033 ft | 467 kts | 275° |
| 2026-04-26 15:05 | 24.63687 | 111.16507 | 30045 ft | 467 kts | 275° |
| 2026-04-26 15:05 | 24.64299 | 111.09403 | 30043 ft | 467 kts | 275° |
| 2026-04-26 15:06 | 24.64909 | 111.02313 | 30019 ft | 467 kts | 275° |
| 2026-04-26 15:06 | 24.65523 | 110.95164 | 30031 ft | 467 kts | 275° |
| 2026-04-26 15:07 | 24.66427 | 110.84491 | 30028 ft | 467 kts | 275° |
| 2026-04-26 15:07 | 24.66980 | 110.80984 | 30019 ft | 466 kts | 286° |
| 2026-04-26 15:07 | 24.68235 | 110.77694 | 30046 ft | 471 kts | 296° |
| 2026-04-26 15:08 | 24.72191 | 110.71960 | 30031 ft | 480 kts | 313° |
| 2026-04-26 15:08 | 24.77102 | 110.66972 | 30031 ft | 480 kts | 314° |
| 2026-04-26 15:09 | 24.81988 | 110.61910 | 30025 ft | 481 kts | 313° |
| 2026-04-26 15:09 | 24.86834 | 110.56805 | 30016 ft | 482 kts | 313° |
| 2026-04-26 15:10 | 24.90854 | 110.52552 | 30016 ft | 482 kts | 313° |
| 2026-04-26 15:10 | 24.96504 | 110.46570 | 30029 ft | 484 kts | 313° |
| 2026-04-26 15:11 | 24.99501 | 110.43395 | 30025 ft | 484 kts | 313° |
| 2026-04-26 15:12 | 25.02681 | 110.40030 | 30030 ft | 484 kts | 313° |
| 2026-04-26 15:12 | 25.07517 | 110.34930 | 30021 ft | 483 kts | 313° |
| 2026-04-26 15:13 | 25.12369 | 110.29807 | 30027 ft | 483 kts | 313° |
| 2026-04-26 15:13 | 25.17243 | 110.24652 | 30029 ft | 484 kts | 313° |
| 2026-04-26 15:14 | 25.22101 | 110.19513 | 30037 ft | 484 kts | 313° |
| 2026-04-26 15:14 | 25.27000 | 110.14389 | 30037 ft | 484 kts | 314° |
| 2026-04-26 15:15 | 25.31898 | 110.09272 | 30042 ft | 484 kts | 314° |
| 2026-04-26 15:15 | 25.36783 | 110.04154 | 30034 ft | 485 kts | 314° |
| 2026-04-26 15:16 | 25.41667 | 109.99026 | 30029 ft | 486 kts | 314° |
| 2026-04-26 15:16 | 25.46601 | 109.93838 | 30038 ft | 487 kts | 314° |
| 2026-04-26 15:17 | 25.50690 | 109.89534 | 30026 ft | 487 kts | 314° |
| 2026-04-26 15:17 | 25.56386 | 109.83535 | 30028 ft | 487 kts | 314° |
| 2026-04-26 15:18 | 25.61299 | 109.78352 | 30010 ft | 487 kts | 314° |
| 2026-04-26 15:18 | 25.66228 | 109.73145 | 30035 ft | 489 kts | 314° |
| 2026-04-26 15:19 | 25.71138 | 109.67951 | 30022 ft | 489 kts | 314° |
| 2026-04-26 15:19 | 25.75859 | 109.62534 | 30009 ft | 485 kts | 304° |
| 2026-04-26 15:20 | 25.79075 | 109.56027 | 30021 ft | 482 kts | 290° |
| 2026-04-26 15:20 | 25.80968 | 109.48880 | 30027 ft | 482 kts | 285° |
| 2026-04-26 15:21 | 25.82809 | 109.41741 | 30017 ft | 482 kts | 285° |
| 2026-04-26 15:21 | 25.84692 | 109.34611 | 30025 ft | 481 kts | 285° |
| 2026-04-26 15:22 | 25.86580 | 109.27472 | 30023 ft | 481 kts | 285° |
| 2026-04-26 15:22 | 25.88458 | 109.20347 | 30034 ft | 481 kts | 285° |
| 2026-04-26 15:23 | 25.90339 | 109.13190 | 30036 ft | 481 kts | 285° |
| 2026-04-26 15:23 | 25.92205 | 109.06073 | 30028 ft | 481 kts | 285° |
| 2026-04-26 15:24 | 25.94074 | 108.98929 | 30035 ft | 480 kts | 285° |
| 2026-04-26 15:24 | 25.95929 | 108.91823 | 30041 ft | 481 kts | 285° |
| 2026-04-26 15:25 | 25.97491 | 108.85828 | 30034 ft | 481 kts | 285° |
| 2026-04-26 15:25 | 25.99644 | 108.77547 | 30045 ft | 480 kts | 285° |
| 2026-04-26 15:26 | 26.01195 | 108.71572 | 30056 ft | 480 kts | 285° |
| 2026-04-26 15:26 | 26.03096 | 108.64452 | 30050 ft | 480 kts | 286° |
| 2026-04-26 15:27 | 26.05015 | 108.57309 | 30058 ft | 480 kts | 286° |
| 2026-04-26 15:27 | 26.06904 | 108.50226 | 30057 ft | 480 kts | 285° |
| 2026-04-26 15:28 | 26.08801 | 108.43091 | 30057 ft | 480 kts | 285° |
| 2026-04-26 15:28 | 26.11143 | 108.36131 | 30055 ft | 480 kts | 295° |
| 2026-04-26 15:29 | 26.14122 | 108.29480 | 30068 ft | 481 kts | 295° |
| 2026-04-26 15:30 | 26.19942 | 108.16017 | 30057 ft | 481 kts | 294° |
| 2026-04-26 15:30 | 26.22813 | 108.09339 | 30064 ft | 481 kts | 294° |
| 2026-04-26 15:31 | 26.27170 | 107.99199 | 30065 ft | 482 kts | 294° |
| 2026-04-26 15:32 | 26.31023 | 107.90213 | 30065 ft | 483 kts | 294° |
| 2026-04-26 15:32 | 26.34385 | 107.82357 | 30067 ft | 484 kts | 295° |
| 2026-04-26 15:33 | 26.37287 | 107.75565 | 30063 ft | 484 kts | 295° |
| 2026-04-26 15:33 | 26.40183 | 107.68774 | 30061 ft | 485 kts | 295° |
| 2026-04-26 15:34 | 26.43076 | 107.61980 | 30069 ft | 485 kts | 295° |
| 2026-04-26 15:34 | 26.45979 | 107.55151 | 30066 ft | 486 kts | 295° |
| 2026-04-26 15:35 | 26.48889 | 107.48316 | 30074 ft | 487 kts | 295° |
| 2026-04-26 15:35 | 26.51813 | 107.41510 | 30067 ft | 487 kts | 295° |
| 2026-04-26 15:36 | 26.54739 | 107.34682 | 30074 ft | 488 kts | 295° |
| 2026-04-26 15:36 | 26.57635 | 107.27816 | 30077 ft | 489 kts | 295° |
| 2026-04-26 15:37 | 26.60521 | 107.20926 | 30074 ft | 489 kts | 295° |
| 2026-04-26 15:37 | 26.63408 | 107.14048 | 30074 ft | 488 kts | 295° |
| 2026-04-26 15:38 | 26.66304 | 107.07221 | 30085 ft | 488 kts | 295° |
| 2026-04-26 15:38 | 26.69234 | 107.00349 | 30082 ft | 489 kts | 295° |
| 2026-04-26 15:39 | 26.72147 | 106.93492 | 30082 ft | 489 kts | 295° |
| 2026-04-26 15:39 | 26.74578 | 106.87752 | 30085 ft | 489 kts | 294° |
| 2026-04-26 15:40 | 26.78244 | 106.79881 | 30071 ft | 490 kts | 304° |
| 2026-04-26 15:40 | 26.82644 | 106.74011 | 30073 ft | 493 kts | 315° |
| 2026-04-26 15:41 | 26.87845 | 106.68974 | 30064 ft | 494 kts | 318° |
| 2026-04-26 15:41 | 26.93046 | 106.63943 | 30052 ft | 494 kts | 317° |
| 2026-04-26 15:42 | 26.98220 | 106.58871 | 30057 ft | 494 kts | 317° |
| 2026-04-26 15:42 | 27.03389 | 106.53783 | 30050 ft | 495 kts | 317° |
| 2026-04-26 15:43 | 27.08572 | 106.48677 | 30037 ft | 495 kts | 317° |
| 2026-04-26 15:44 | 27.16328 | 106.41029 | 30036 ft | 494 kts | 317° |
| 2026-04-26 15:44 | 27.24067 | 106.33428 | 30028 ft | 494 kts | 317° |
| 2026-04-26 15:45 | 27.31904 | 106.25828 | 30020 ft | 494 kts | 317° |
| 2026-04-26 15:46 | 27.39670 | 106.18264 | 30025 ft | 495 kts | 317° |
| 2026-04-26 15:46 | 27.43995 | 106.14041 | 30018 ft | 494 kts | 317° |
| 2026-04-26 15:47 | 27.52667 | 106.05560 | 30006 ft | 494 kts | 317° |
| 2026-04-26 15:48 | 27.57864 | 106.00468 | 30008 ft | 494 kts | 317° |
| 2026-04-26 15:48 | 27.63062 | 105.95367 | 30000 ft | 494 kts | 317° |
| 2026-04-26 15:49 | 27.68204 | 105.90318 | 30000 ft | 494 kts | 317° |
| 2026-04-26 15:49 | 27.72712 | 105.84537 | 29996 ft | 491 kts | 300° |
| 2026-04-26 15:50 | 27.75485 | 105.77544 | 29993 ft | 489 kts | 285° |
| 2026-04-26 15:50 | 27.77422 | 105.70160 | 29988 ft | 489 kts | 287° |
| 2026-04-26 15:51 | 27.79495 | 105.62838 | 29987 ft | 489 kts | 287° |
| 2026-04-26 15:51 | 27.81999 | 105.55718 | 29991 ft | 490 kts | 293° |
| 2026-04-26 15:52 | 27.84838 | 105.48636 | 29995 ft | 490 kts | 293° |
| 2026-04-26 15:52 | 27.87555 | 105.41629 | 29980 ft | 490 kts | 292° |
| 2026-04-26 15:53 | 27.90445 | 105.34660 | 29984 ft | 490 kts | 296° |
| 2026-04-26 15:53 | 27.93550 | 105.27794 | 29981 ft | 490 kts | 296° |
| 2026-04-26 15:54 | 27.96703 | 105.20940 | 29975 ft | 490 kts | 301° |
| 2026-04-26 15:54 | 28.01240 | 105.15181 | 29982 ft | 493 kts | 318° |
| 2026-04-26 15:55 | 28.07004 | 105.10923 | 29978 ft | 495 kts | 327° |
| 2026-04-26 15:55 | 28.12933 | 105.06894 | 29958 ft | 495 kts | 326° |
| 2026-04-26 15:56 | 28.18782 | 105.02815 | 29971 ft | 495 kts | 326° |
| 2026-04-26 15:56 | 28.24650 | 104.98700 | 29963 ft | 495 kts | 326° |
| 2026-04-26 15:57 | 28.30494 | 104.94602 | 29969 ft | 495 kts | 326° |
| 2026-04-26 15:57 | 28.33423 | 104.92547 | 30159 ft | 495 kts | 326° |
| 2026-04-26 15:57 | 28.36364 | 104.90483 | 30448 ft | 494 kts | 326° |
| 2026-04-26 15:57 | 28.38298 | 104.89125 | 30664 ft | 493 kts | 326° |
| 2026-04-26 15:58 | 28.42157 | 104.86420 | 31073 ft | 490 kts | 326° |
| 2026-04-26 15:58 | 28.45105 | 104.84358 | 31349 ft | 490 kts | 326° |
| 2026-04-26 15:58 | 28.47019 | 104.83020 | 31515 ft | 490 kts | 326° |
| 2026-04-26 15:58 | 28.50876 | 104.80319 | 31816 ft | 490 kts | 326° |
| 2026-04-26 15:59 | 28.53783 | 104.78281 | 31890 ft | 492 kts | 326° |
| 2026-04-26 15:59 | 28.59601 | 104.74197 | 31956 ft | 491 kts | 326° |
| 2026-04-26 16:00 | 28.64456 | 104.70785 | 31960 ft | 489 kts | 326° |
| 2026-04-26 16:00 | 28.70258 | 104.66703 | 31960 ft | 488 kts | 326° |
| 2026-04-26 16:01 | 28.76013 | 104.62646 | 31967 ft | 489 kts | 326° |
| 2026-04-26 16:01 | 28.81790 | 104.58569 | 31972 ft | 488 kts | 326° |
| 2026-04-26 16:02 | 28.87561 | 104.54490 | 31967 ft | 487 kts | 326° |
| 2026-04-26 16:02 | 28.93317 | 104.50399 | 31980 ft | 487 kts | 326° |
| 2026-04-26 16:03 | 28.99062 | 104.46307 | 31978 ft | 488 kts | 326° |
| 2026-04-26 16:03 | 29.04847 | 104.42184 | 31979 ft | 488 kts | 326° |
| 2026-04-26 16:04 | 29.10607 | 104.38074 | 31979 ft | 487 kts | 326° |
| 2026-04-26 16:04 | 29.16348 | 104.33971 | 31983 ft | 487 kts | 326° |
| 2026-04-26 16:05 | 29.22116 | 104.29845 | 31983 ft | 487 kts | 326° |
| 2026-04-26 16:05 | 29.25061 | 104.28054 | 31970 ft | 488 kts | 337° |
| 2026-04-26 16:05 | 29.28383 | 104.27049 | 31997 ft | 493 kts | 350° |
| 2026-04-26 16:05 | 29.31838 | 104.26849 | 31996 ft | 498 kts | 1° |
| 2026-04-26 16:06 | 29.35276 | 104.27354 | 32002 ft | 500 kts | 7° |
| 2026-04-26 16:06 | 29.42128 | 104.28658 | 31986 ft | 499 kts | 7° |
| 2026-04-26 16:07 | 29.48991 | 104.29891 | 31990 ft | 497 kts | 6° |
| 2026-04-26 16:07 | 29.55821 | 104.31062 | 31996 ft | 496 kts | 6° |
| 2026-04-26 16:08 | 29.62664 | 104.32222 | 32003 ft | 496 kts | 6° |
| 2026-04-26 16:08 | 29.69494 | 104.33384 | 32004 ft | 496 kts | 6° |
| 2026-04-26 16:09 | 29.76282 | 104.34543 | 32011 ft | 495 kts | 6° |
| 2026-04-26 16:09 | 29.83093 | 104.35709 | 32014 ft | 495 kts | 6° |
| 2026-04-26 16:10 | 29.89959 | 104.36885 | 32005 ft | 494 kts | 5° |
| 2026-04-26 16:10 | 29.96721 | 104.38045 | 32014 ft | 494 kts | 5° |
| 2026-04-26 16:11 | 30.03534 | 104.39215 | 32025 ft | 494 kts | 5° |
| 2026-04-26 16:11 | 30.10319 | 104.40383 | 32008 ft | 494 kts | 5° |
| 2026-04-26 16:12 | 30.17140 | 104.41560 | 32019 ft | 493 kts | 5° |
| 2026-04-26 16:12 | 30.27347 | 104.43345 | 32029 ft | 493 kts | 5° |
| 2026-04-26 16:13 | 30.34110 | 104.44530 | 32020 ft | 493 kts | 5° |
| 2026-04-26 16:13 | 30.40957 | 104.45730 | 32017 ft | 493 kts | 5° |
| 2026-04-26 16:14 | 30.47761 | 104.46924 | 32020 ft | 492 kts | 5° |
| 2026-04-26 16:15 | 30.57900 | 104.48542 | 32010 ft | 490 kts | 358° |
| 2026-04-26 16:15 | 30.64669 | 104.47722 | 32021 ft | 482 kts | 343° |
| 2026-04-26 16:16 | 30.74179 | 104.44016 | 32010 ft | 481 kts | 338° |
| 2026-04-26 16:16 | 30.80490 | 104.41587 | 32007 ft | 480 kts | 339° |
| 2026-04-26 16:17 | 30.86969 | 104.39459 | 32004 ft | 484 kts | 346° |
| 2026-04-26 16:17 | 30.93726 | 104.38719 | 32013 ft | 490 kts | 356° |
| 2026-04-26 16:18 | 31.03919 | 104.38557 | 32008 ft | 490 kts | 355° |
| 2026-04-26 16:19 | 31.11879 | 104.38351 | 32010 ft | 489 kts | 355° |
| 2026-04-26 16:20 | 31.24359 | 104.38017 | 32016 ft | 490 kts | 355° |
| 2026-04-26 16:20 | 31.34562 | 104.37497 | 32016 ft | 489 kts | 353° |
| 2026-04-26 16:21 | 31.41390 | 104.37063 | 32018 ft | 490 kts | 354° |
| 2026-04-26 16:21 | 31.48207 | 104.36657 | 32029 ft | 489 kts | 354° |
| 2026-04-26 16:22 | 31.54977 | 104.36266 | 32038 ft | 489 kts | 354° |
| 2026-04-26 16:22 | 31.61771 | 104.35874 | 32037 ft | 490 kts | 354° |
| 2026-04-26 16:23 | 31.68619 | 104.35477 | 32053 ft | 490 kts | 354° |
| 2026-04-26 16:23 | 31.75421 | 104.35082 | 32054 ft | 489 kts | 354° |
| 2026-04-26 16:24 | 31.82176 | 104.34710 | 32060 ft | 489 kts | 354° |
| 2026-04-26 16:24 | 31.88984 | 104.34368 | 32065 ft | 489 kts | 354° |
| 2026-04-26 16:25 | 31.95776 | 104.34028 | 32082 ft | 488 kts | 354° |
| 2026-04-26 16:25 | 32.02564 | 104.33681 | 32084 ft | 488 kts | 354° |
| 2026-04-26 16:26 | 32.08221 | 104.33392 | 32086 ft | 487 kts | 354° |
| 2026-04-26 16:26 | 32.16105 | 104.32985 | 32104 ft | 487 kts | 354° |
| 2026-04-26 16:27 | 32.22895 | 104.32635 | 32101 ft | 486 kts | 354° |
| 2026-04-26 16:27 | 32.29637 | 104.32287 | 32106 ft | 486 kts | 354° |
| 2026-04-26 16:28 | 32.36438 | 104.31936 | 32109 ft | 485 kts | 354° |
| 2026-04-26 16:28 | 32.43189 | 104.31588 | 32116 ft | 485 kts | 354° |
| 2026-04-26 16:29 | 32.49933 | 104.31250 | 32124 ft | 485 kts | 354° |
| 2026-04-26 16:29 | 32.56682 | 104.30912 | 32132 ft | 484 kts | 354° |
| 2026-04-26 16:30 | 32.62270 | 104.30634 | 32141 ft | 485 kts | 354° |
| 2026-04-26 16:30 | 32.70134 | 104.30260 | 32134 ft | 485 kts | 354° |
| 2026-04-26 16:31 | 32.76887 | 104.29939 | 32138 ft | 485 kts | 354° |
| 2026-04-26 16:31 | 32.82544 | 104.29667 | 32133 ft | 484 kts | 354° |
| 2026-04-26 16:32 | 32.89277 | 104.29342 | 32146 ft | 487 kts | 354° |
| 2026-04-26 16:32 | 32.96120 | 104.29011 | 32155 ft | 494 kts | 354° |
| 2026-04-26 16:33 | 33.02977 | 104.28682 | 32144 ft | 492 kts | 353° |
| 2026-04-26 16:33 | 33.09806 | 104.28357 | 32130 ft | 488 kts | 353° |
| 2026-04-26 16:34 | 33.16575 | 104.28029 | 32152 ft | 488 kts | 353° |
| 2026-04-26 16:34 | 33.23360 | 104.27696 | 32153 ft | 490 kts | 353° |
| 2026-04-26 16:35 | 33.30194 | 104.27364 | 32159 ft | 490 kts | 353° |
| 2026-04-26 16:35 | 33.36806 | 104.25857 | 32165 ft | 481 kts | 336° |
| 2026-04-26 16:36 | 33.42756 | 104.22413 | 32177 ft | 475 kts | 325° |
| 2026-04-26 16:36 | 33.48501 | 104.18367 | 32156 ft | 478 kts | 327° |
| 2026-04-26 16:37 | 33.54291 | 104.14426 | 32168 ft | 479 kts | 328° |
| 2026-04-26 16:37 | 33.60572 | 104.11653 | 32178 ft | 488 kts | 345° |
| 2026-04-26 16:38 | 33.67377 | 104.11041 | 32180 ft | 496 kts | 357° |
| 2026-04-26 16:38 | 33.74344 | 104.11150 | 32177 ft | 496 kts | 356° |
| 2026-04-26 16:39 | 33.81243 | 104.11194 | 32184 ft | 496 kts | 356° |
| 2026-04-26 16:39 | 33.88158 | 104.11203 | 32187 ft | 494 kts | 356° |
| 2026-04-26 16:40 | 33.95029 | 104.11199 | 32193 ft | 494 kts | 355° |
| 2026-04-26 16:40 | 34.01957 | 104.11196 | 32186 ft | 495 kts | 355° |
| 2026-04-26 16:41 | 34.08806 | 104.11198 | 32199 ft | 494 kts | 355° |
| 2026-04-26 16:41 | 34.15673 | 104.11200 | 32212 ft | 493 kts | 355° |
| 2026-04-26 16:42 | 34.22541 | 104.11197 | 32209 ft | 493 kts | 355° |
| 2026-04-26 16:42 | 34.29400 | 104.11197 | 32229 ft | 491 kts | 355° |
| 2026-04-26 16:43 | 34.36214 | 104.11197 | 32237 ft | 491 kts | 355° |
| 2026-04-26 16:43 | 34.43062 | 104.11196 | 32240 ft | 491 kts | 355° |
| 2026-04-26 16:44 | 34.49888 | 104.11198 | 32254 ft | 491 kts | 355° |
| 2026-04-26 16:44 | 34.56736 | 104.11198 | 32242 ft | 492 kts | 355° |
| 2026-04-26 16:45 | 34.63585 | 104.11197 | 32248 ft | 491 kts | 355° |
| 2026-04-26 16:45 | 34.70400 | 104.11199 | 32250 ft | 490 kts | 355° |
| 2026-04-26 16:46 | 34.77201 | 104.11199 | 32248 ft | 489 kts | 354° |
| 2026-04-26 16:46 | 34.84040 | 104.11199 | 32246 ft | 488 kts | 354° |
| 2026-04-26 16:47 | 34.90804 | 104.11199 | 32248 ft | 487 kts | 354° |
| 2026-04-26 16:47 | 34.97581 | 104.11199 | 32248 ft | 487 kts | 354° |
| 2026-04-26 16:48 | 35.04354 | 104.11198 | 32249 ft | 487 kts | 354° |
| 2026-04-26 16:48 | 35.11133 | 104.11199 | 32264 ft | 486 kts | 354° |
| 2026-04-26 16:49 | 35.17897 | 104.11199 | 32247 ft | 486 kts | 354° |
| 2026-04-26 16:49 | 35.24683 | 104.11199 | 32254 ft | 486 kts | 354° |
| 2026-04-26 16:50 | 35.31449 | 104.11199 | 32254 ft | 486 kts | 354° |
| 2026-04-26 16:50 | 35.38207 | 104.11200 | 32268 ft | 486 kts | 354° |
| 2026-04-26 16:51 | 35.44957 | 104.11200 | 32272 ft | 485 kts | 354° |
| 2026-04-26 16:51 | 35.51744 | 104.11201 | 32277 ft | 486 kts | 354° |
| 2026-04-26 16:52 | 35.57367 | 104.11217 | 32287 ft | 486 kts | 354° |
| 2026-04-26 16:52 | 35.65233 | 104.11245 | 32282 ft | 486 kts | 354° |
| 2026-04-26 16:53 | 35.72006 | 104.11268 | 32297 ft | 486 kts | 354° |
| 2026-04-26 16:53 | 35.78773 | 104.11287 | 32301 ft | 486 kts | 354° |
| 2026-04-26 16:54 | 35.85524 | 104.11170 | 32295 ft | 483 kts | 350° |
| 2026-04-26 16:54 | 35.92213 | 104.10426 | 32306 ft | 480 kts | 347° |
| 2026-04-26 16:55 | 35.98852 | 104.09593 | 32304 ft | 481 kts | 348° |
| 2026-04-26 16:55 | 36.05517 | 104.08839 | 32303 ft | 481 kts | 348° |
| 2026-04-26 16:56 | 36.15546 | 104.07755 | 32300 ft | 482 kts | 348° |
| 2026-04-26 16:57 | 36.22185 | 104.07032 | 32298 ft | 482 kts | 348° |
| 2026-04-26 16:57 | 36.32258 | 104.05926 | 32302 ft | 483 kts | 348° |
| 2026-04-26 16:58 | 36.36686 | 104.05439 | 32302 ft | 483 kts | 348° |
| 2026-04-26 16:59 | 36.48949 | 104.04094 | 32309 ft | 483 kts | 348° |
| 2026-04-26 17:00 | 36.61551 | 104.00364 | 32326 ft | 453 kts | 314° |
| 2026-04-26 17:00 | 36.65439 | 103.94341 | 32334 ft | 447 kts | 295° |
| 2026-04-26 17:00 | 36.66887 | 103.90908 | 32330 ft | 448 kts | 295° |
| 2026-04-26 17:01 | 36.69777 | 103.84048 | 32342 ft | 444 kts | 295° |
| 2026-04-26 17:01 | 36.72668 | 103.77291 | 32343 ft | 443 kts | 295° |
| 2026-04-26 17:02 | 36.75596 | 103.70511 | 32353 ft | 444 kts | 295° |
| 2026-04-26 17:02 | 36.78542 | 103.63697 | 32358 ft | 445 kts | 295° |
| 2026-04-26 17:03 | 36.81474 | 103.56905 | 32359 ft | 445 kts | 295° |
| 2026-04-26 17:03 | 36.83911 | 103.51244 | 32366 ft | 444 kts | 295° |
| 2026-04-26 17:04 | 36.86832 | 103.44445 | 32379 ft | 444 kts | 295° |
| 2026-04-26 17:04 | 36.89751 | 103.37636 | 32358 ft | 444 kts | 295° |
| 2026-04-26 17:05 | 36.92652 | 103.30858 | 32380 ft | 443 kts | 295° |
| 2026-04-26 17:05 | 36.95786 | 103.24200 | 32392 ft | 445 kts | 299° |
| 2026-04-26 17:06 | 36.99105 | 103.17671 | 32398 ft | 444 kts | 299° |
| 2026-04-26 17:06 | 37.02409 | 103.11122 | 32417 ft | 444 kts | 299° |
| 2026-04-26 17:07 | 37.05699 | 103.04570 | 32422 ft | 444 kts | 299° |
| 2026-04-26 17:07 | 37.08977 | 102.98029 | 32405 ft | 443 kts | 299° |
| 2026-04-26 17:08 | 37.12245 | 102.91494 | 32411 ft | 444 kts | 299° |
| 2026-04-26 17:08 | 37.15522 | 102.84927 | 32434 ft | 444 kts | 298° |
| 2026-04-26 17:09 | 37.18252 | 102.79446 | 32423 ft | 444 kts | 298° |
| 2026-04-26 17:09 | 37.22076 | 102.71755 | 32427 ft | 445 kts | 298° |
| 2026-04-26 17:10 | 37.25358 | 102.65139 | 32426 ft | 446 kts | 298° |
| 2026-04-26 17:10 | 37.28627 | 102.58536 | 32433 ft | 446 kts | 298° |
| 2026-04-26 17:11 | 37.31903 | 102.51907 | 32429 ft | 447 kts | 298° |
| 2026-04-26 17:11 | 37.34968 | 102.45098 | 32457 ft | 444 kts | 291° |
| 2026-04-26 17:12 | 37.37801 | 102.34066 | 32459 ft | 441 kts | 282° |
| 2026-04-26 17:13 | 37.39986 | 102.22876 | 32437 ft | 442 kts | 283° |
| 2026-04-26 17:14 | 37.42210 | 102.11608 | 32461 ft | 442 kts | 283° |
| 2026-04-26 17:14 | 37.44421 | 102.00318 | 32443 ft | 442 kts | 282° |
| 2026-04-26 17:15 | 37.46587 | 101.89065 | 32432 ft | 441 kts | 282° |
| 2026-04-26 17:16 | 37.48030 | 101.81542 | 32425 ft | 441 kts | 282° |
| 2026-04-26 17:16 | 37.49467 | 101.74029 | 32413 ft | 442 kts | 282° |
| 2026-04-26 17:17 | 37.51414 | 101.66660 | 32417 ft | 443 kts | 291° |
| 2026-04-26 17:17 | 37.54256 | 101.59747 | 32409 ft | 445 kts | 296° |
| 2026-04-26 17:18 | 37.57205 | 101.52897 | 32431 ft | 444 kts | 296° |
| 2026-04-26 17:18 | 37.60117 | 101.46034 | 32406 ft | 444 kts | 295° |
| 2026-04-26 17:19 | 37.64497 | 101.35690 | 32397 ft | 444 kts | 295° |
| 2026-04-26 17:19 | 37.67382 | 101.28866 | 32391 ft | 444 kts | 295° |
| 2026-04-26 17:20 | 37.69802 | 101.23131 | 32398 ft | 444 kts | 295° |
| 2026-04-26 17:20 | 37.73186 | 101.15092 | 32391 ft | 444 kts | 295° |
| 2026-04-26 17:21 | 37.76085 | 101.08188 | 32386 ft | 445 kts | 295° |
| 2026-04-26 17:21 | 37.78982 | 101.01278 | 32366 ft | 444 kts | 295° |
| 2026-04-26 17:22 | 37.81878 | 100.94351 | 32378 ft | 444 kts | 295° |
| 2026-04-26 17:22 | 37.84822 | 100.87463 | 32377 ft | 445 kts | 296° |
| 2026-04-26 17:23 | 37.87865 | 100.80693 | 32377 ft | 445 kts | 297° |
| 2026-04-26 17:23 | 37.90954 | 100.73832 | 32381 ft | 445 kts | 297° |
| 2026-04-26 17:24 | 37.94002 | 100.67010 | 32380 ft | 444 kts | 296° |
| 2026-04-26 17:24 | 37.97015 | 100.60225 | 32373 ft | 444 kts | 296° |
| 2026-04-26 17:25 | 38.00035 | 100.53402 | 32370 ft | 444 kts | 296° |
| 2026-04-26 17:25 | 38.03078 | 100.46513 | 32368 ft | 444 kts | 296° |
| 2026-04-26 17:26 | 38.06076 | 100.39711 | 32365 ft | 444 kts | 296° |
| 2026-04-26 17:26 | 38.09092 | 100.32854 | 32367 ft | 444 kts | 296° |
| 2026-04-26 17:27 | 38.12102 | 100.25999 | 32353 ft | 444 kts | 296° |
| 2026-04-26 17:27 | 38.15107 | 100.19140 | 32374 ft | 445 kts | 296° |
| 2026-04-26 17:28 | 38.18115 | 100.12256 | 32357 ft | 445 kts | 296° |
| 2026-04-26 17:28 | 38.21121 | 100.05363 | 32354 ft | 445 kts | 296° |
| 2026-04-26 17:29 | 38.23620 | 99.99623 | 32341 ft | 445 kts | 296° |
| 2026-04-26 17:29 | 38.27112 | 99.91585 | 32345 ft | 445 kts | 296° |
| 2026-04-26 17:30 | 38.30117 | 99.84650 | 32341 ft | 444 kts | 296° |
| 2026-04-26 17:30 | 38.33084 | 99.77787 | 32339 ft | 444 kts | 295° |
| 2026-04-26 17:31 | 38.36059 | 99.70889 | 32339 ft | 445 kts | 295° |
| 2026-04-26 17:31 | 38.39035 | 99.63980 | 32339 ft | 444 kts | 295° |
| 2026-04-26 17:32 | 38.42001 | 99.57075 | 32335 ft | 443 kts | 295° |
| 2026-04-26 17:32 | 38.44961 | 99.50171 | 32338 ft | 443 kts | 295° |
| 2026-04-26 17:33 | 38.47906 | 99.43283 | 32342 ft | 443 kts | 295° |
| 2026-04-26 17:34 | 38.52331 | 99.32906 | 32335 ft | 442 kts | 295° |
| 2026-04-26 17:34 | 38.55257 | 99.26030 | 32333 ft | 442 kts | 295° |
| 2026-04-26 17:35 | 38.58191 | 99.19114 | 32338 ft | 441 kts | 295° |
| 2026-04-26 17:35 | 38.61120 | 99.12199 | 32342 ft | 441 kts | 295° |
| 2026-04-26 17:36 | 38.64040 | 99.05286 | 32345 ft | 442 kts | 295° |
| 2026-04-26 17:36 | 38.66956 | 98.98371 | 32350 ft | 442 kts | 295° |
| 2026-04-26 17:37 | 38.69867 | 98.91453 | 32347 ft | 441 kts | 295° |
| 2026-04-26 17:37 | 38.72778 | 98.84517 | 32342 ft | 441 kts | 295° |
| 2026-04-26 17:38 | 38.76637 | 98.75299 | 32337 ft | 441 kts | 295° |
| 2026-04-26 17:38 | 38.79999 | 98.67247 | 32342 ft | 440 kts | 295° |
| 2026-04-26 17:39 | 38.82422 | 98.61431 | 32342 ft | 440 kts | 294° |
| 2026-04-26 17:39 | 38.85301 | 98.54506 | 32340 ft | 440 kts | 294° |
| 2026-04-26 17:40 | 38.87677 | 98.48777 | 32331 ft | 440 kts | 294° |
| 2026-04-26 17:40 | 38.91032 | 98.40671 | 32324 ft | 440 kts | 294° |
| 2026-04-26 17:41 | 38.93902 | 98.33723 | 32328 ft | 440 kts | 294° |
| 2026-04-26 17:41 | 38.96773 | 98.26755 | 32311 ft | 440 kts | 294° |
| 2026-04-26 17:42 | 38.99635 | 98.19791 | 32319 ft | 440 kts | 294° |
| 2026-04-26 17:42 | 39.02487 | 98.12840 | 32321 ft | 439 kts | 294° |
| 2026-04-26 17:43 | 39.05338 | 98.05874 | 32318 ft | 440 kts | 294° |
| 2026-04-26 17:43 | 39.08169 | 97.98936 | 32321 ft | 439 kts | 294° |
| 2026-04-26 17:44 | 39.11005 | 97.91976 | 32319 ft | 437 kts | 294° |
| 2026-04-26 17:44 | 39.13828 | 97.85037 | 32325 ft | 438 kts | 294° |
| 2026-04-26 17:45 | 39.16659 | 97.78052 | 32322 ft | 440 kts | 294° |
| 2026-04-26 17:45 | 39.19491 | 97.71048 | 32315 ft | 438 kts | 294° |
| 2026-04-26 17:46 | 39.22294 | 97.64110 | 32317 ft | 436 kts | 294° |
| 2026-04-26 17:46 | 39.25099 | 97.57165 | 32317 ft | 437 kts | 294° |
| 2026-04-26 17:47 | 39.27441 | 97.51373 | 32310 ft | 437 kts | 294° |
| 2026-04-26 17:47 | 39.30725 | 97.43237 | 32295 ft | 437 kts | 294° |
| 2026-04-26 17:48 | 39.33518 | 97.36294 | 32312 ft | 436 kts | 293° |
| 2026-04-26 17:48 | 39.36331 | 97.29281 | 32284 ft | 436 kts | 293° |
| 2026-04-26 17:49 | 39.39101 | 97.22369 | 32308 ft | 436 kts | 293° |
| 2026-04-26 17:49 | 39.41906 | 97.15341 | 32287 ft | 436 kts | 293° |
| 2026-04-26 17:50 | 39.44680 | 97.08384 | 32280 ft | 435 kts | 293° |
| 2026-04-26 17:50 | 39.47437 | 97.01458 | 32277 ft | 435 kts | 293° |
| 2026-04-26 17:51 | 39.50249 | 96.94462 | 32267 ft | 436 kts | 293° |
| 2026-04-26 17:51 | 39.53049 | 96.87496 | 32275 ft | 436 kts | 293° |
| 2026-04-26 17:52 | 39.55823 | 96.80564 | 32286 ft | 435 kts | 293° |
| 2026-04-26 17:52 | 39.58624 | 96.73550 | 32291 ft | 435 kts | 293° |
| 2026-04-26 17:53 | 39.61386 | 96.66617 | 32289 ft | 435 kts | 293° |
| 2026-04-26 17:54 | 39.65556 | 96.56089 | 32291 ft | 435 kts | 293° |
| 2026-04-26 17:54 | 39.68290 | 96.49132 | 32287 ft | 435 kts | 293° |
| 2026-04-26 17:55 | 39.71029 | 96.42146 | 32290 ft | 435 kts | 293° |
| 2026-04-26 17:55 | 39.73771 | 96.35141 | 32290 ft | 435 kts | 293° |
| 2026-04-26 17:56 | 39.76510 | 96.28129 | 32283 ft | 434 kts | 293° |
| 2026-04-26 17:57 | 39.81965 | 96.14111 | 32271 ft | 435 kts | 293° |
| 2026-04-26 17:57 | 39.84695 | 96.07072 | 32274 ft | 435 kts | 293° |
| 2026-04-26 17:58 | 39.90111 | 95.93058 | 32262 ft | 434 kts | 293° |
| 2026-04-26 17:59 | 39.94185 | 95.82473 | 32267 ft | 435 kts | 293° |
| 2026-04-26 17:59 | 39.96880 | 95.75449 | 32261 ft | 435 kts | 293° |
| 2026-04-26 18:00 | 39.99586 | 95.68381 | 32261 ft | 434 kts | 293° |
| 2026-04-26 18:00 | 40.02281 | 95.61324 | 32262 ft | 435 kts | 293° |
| 2026-04-26 18:01 | 40.04967 | 95.54275 | 32258 ft | 435 kts | 293° |
| 2026-04-26 18:01 | 40.07676 | 95.47146 | 32250 ft | 436 kts | 293° |
| 2026-04-26 18:02 | 40.09451 | 95.42466 | 32252 ft | 436 kts | 293° |
| 2026-04-26 18:02 | 40.13054 | 95.32946 | 32248 ft | 436 kts | 293° |
| 2026-04-26 18:03 | 40.15728 | 95.25858 | 32241 ft | 437 kts | 293° |
| 2026-04-26 18:03 | 40.18412 | 95.18731 | 32238 ft | 438 kts | 293° |
| 2026-04-26 18:04 | 40.21114 | 95.11562 | 32220 ft | 439 kts | 293° |
| 2026-04-26 18:05 | 40.25224 | 95.00831 | 32218 ft | 440 kts | 294° |
| 2026-04-26 18:05 | 40.27962 | 94.93649 | 32213 ft | 441 kts | 294° |
| 2026-04-26 18:06 | 40.30856 | 94.86546 | 32202 ft | 444 kts | 299° |
| 2026-04-26 18:06 | 40.34591 | 94.80067 | 32214 ft | 447 kts | 305° |
| 2026-04-26 18:07 | 40.38488 | 94.73706 | 32204 ft | 448 kts | 305° |
| 2026-04-26 18:07 | 40.42355 | 94.67305 | 32199 ft | 448 kts | 305° |
| 2026-04-26 18:08 | 40.46230 | 94.60870 | 32203 ft | 449 kts | 305° |
| 2026-04-26 18:08 | 40.50102 | 94.54433 | 32204 ft | 451 kts | 305° |
| 2026-04-26 18:09 | 40.54022 | 94.47907 | 32197 ft | 451 kts | 305° |
| 2026-04-26 18:09 | 40.57883 | 94.41466 | 32200 ft | 452 kts | 305° |
| 2026-04-26 18:10 | 40.61779 | 94.34953 | 32205 ft | 452 kts | 305° |
| 2026-04-26 18:10 | 40.65670 | 94.28433 | 32204 ft | 453 kts | 305° |
| 2026-04-26 18:11 | 40.69543 | 94.21930 | 32213 ft | 454 kts | 305° |
| 2026-04-26 18:11 | 40.73453 | 94.15352 | 32214 ft | 455 kts | 305° |
| 2026-04-26 18:12 | 40.77366 | 94.08754 | 32216 ft | 455 kts | 305° |
| 2026-04-26 18:12 | 40.81239 | 94.02210 | 32219 ft | 455 kts | 305° |
| 2026-04-26 18:13 | 40.85159 | 93.95571 | 32219 ft | 456 kts | 305° |
| 2026-04-26 18:13 | 40.88396 | 93.90079 | 32220 ft | 456 kts | 305° |
| 2026-04-26 18:14 | 40.92301 | 93.83454 | 32223 ft | 456 kts | 306° |
| 2026-04-26 18:14 | 40.97066 | 93.76008 | 32230 ft | 456 kts | 308° |
| 2026-04-26 18:15 | 41.00552 | 93.70713 | 32214 ft | 455 kts | 308° |
| 2026-04-26 18:15 | 41.04671 | 93.64391 | 32221 ft | 455 kts | 308° |
| 2026-04-26 18:16 | 41.08807 | 93.57974 | 32223 ft | 454 kts | 308° |
| 2026-04-26 18:16 | 41.14923 | 93.48427 | 32225 ft | 452 kts | 308° |
| 2026-04-26 18:17 | 41.18987 | 93.42068 | 32224 ft | 451 kts | 308° |
| 2026-04-26 18:17 | 41.23009 | 93.35761 | 32221 ft | 449 kts | 308° |
| 2026-04-26 18:18 | 41.27038 | 93.29433 | 32220 ft | 448 kts | 308° |
| 2026-04-26 18:18 | 41.31075 | 93.23079 | 32220 ft | 446 kts | 308° |
| 2026-04-26 18:19 | 41.35050 | 93.16807 | 32218 ft | 445 kts | 308° |
| 2026-04-26 18:19 | 41.39040 | 93.10500 | 32216 ft | 445 kts | 308° |
| 2026-04-26 18:20 | 41.43022 | 93.04190 | 32218 ft | 445 kts | 308° |
| 2026-04-26 18:20 | 41.46328 | 92.98944 | 32215 ft | 445 kts | 308° |
| 2026-04-26 18:21 | 41.50995 | 92.91521 | 32211 ft | 444 kts | 308° |
| 2026-04-26 18:21 | 41.54962 | 92.85197 | 32208 ft | 444 kts | 308° |
| 2026-04-26 18:22 | 41.58927 | 92.78863 | 32197 ft | 445 kts | 308° |
| 2026-04-26 18:22 | 41.62874 | 92.72545 | 32200 ft | 445 kts | 308° |
| 2026-04-26 18:23 | 41.66831 | 92.66196 | 32195 ft | 445 kts | 308° |
| 2026-04-26 18:23 | 41.70800 | 92.59815 | 32191 ft | 446 kts | 308° |
| 2026-04-26 18:24 | 41.74783 | 92.53398 | 32187 ft | 446 kts | 308° |
| 2026-04-26 18:24 | 41.78748 | 92.46996 | 32183 ft | 447 kts | 307° |
| 2026-04-26 18:25 | 41.82714 | 92.40579 | 32180 ft | 447 kts | 307° |
| 2026-04-26 18:25 | 41.86687 | 92.34137 | 32180 ft | 447 kts | 307° |
| 2026-04-26 18:26 | 41.90639 | 92.27715 | 32177 ft | 447 kts | 307° |
| 2026-04-26 18:26 | 41.94577 | 92.21303 | 32181 ft | 447 kts | 307° |
| 2026-04-26 18:27 | 41.98534 | 92.14844 | 32169 ft | 447 kts | 307° |
| 2026-04-26 18:27 | 42.02496 | 92.08366 | 32175 ft | 447 kts | 307° |
| 2026-04-26 18:28 | 42.06440 | 92.01900 | 32176 ft | 448 kts | 307° |
| 2026-04-26 18:28 | 42.10383 | 91.95423 | 32175 ft | 448 kts | 308° |
| 2026-04-26 18:29 | 42.14328 | 91.88929 | 32182 ft | 448 kts | 308° |
| 2026-04-26 18:29 | 42.18267 | 91.82430 | 32171 ft | 448 kts | 308° |
| 2026-04-26 18:30 | 42.22213 | 91.75916 | 32175 ft | 448 kts | 308° |
| 2026-04-26 18:30 | 42.26615 | 91.69922 | 32179 ft | 450 kts | 315° |
| 2026-04-26 18:31 | 42.31198 | 91.64154 | 32155 ft | 449 kts | 315° |
| 2026-04-26 18:31 | 42.35734 | 91.58355 | 32160 ft | 449 kts | 315° |
| 2026-04-26 18:32 | 42.40275 | 91.52527 | 32166 ft | 448 kts | 315° |
| 2026-04-26 18:32 | 42.44795 | 91.46717 | 32165 ft | 448 kts | 315° |
| 2026-04-26 18:33 | 42.49276 | 91.40946 | 32159 ft | 447 kts | 315° |
| 2026-04-26 18:33 | 42.53779 | 91.35137 | 32139 ft | 447 kts | 315° |
| 2026-04-26 18:34 | 42.58276 | 91.29324 | 32161 ft | 445 kts | 315° |
| 2026-04-26 18:34 | 42.62765 | 91.23508 | 32152 ft | 445 kts | 315° |
| 2026-04-26 18:35 | 42.67244 | 91.17693 | 32158 ft | 445 kts | 315° |
| 2026-04-26 18:35 | 42.71718 | 91.11872 | 32133 ft | 445 kts | 315° |
| 2026-04-26 18:36 | 42.76179 | 91.06056 | 32125 ft | 444 kts | 315° |
| 2026-04-26 18:36 | 42.80655 | 91.00207 | 32134 ft | 443 kts | 315° |
| 2026-04-26 18:37 | 42.85074 | 90.94422 | 32130 ft | 442 kts | 316° |
| 2026-04-26 18:37 | 42.89249 | 90.88291 | 32132 ft | 442 kts | 308° |
| 2026-04-26 18:38 | 42.92633 | 90.81268 | 32141 ft | 442 kts | 302° |
| 2026-04-26 18:38 | 42.95847 | 90.74122 | 32135 ft | 442 kts | 303° |
| 2026-04-26 18:39 | 42.99084 | 90.66993 | 32146 ft | 442 kts | 303° |
| 2026-04-26 18:39 | 43.02321 | 90.59850 | 32149 ft | 442 kts | 303° |
| 2026-04-26 18:40 | 43.05565 | 90.52664 | 32156 ft | 442 kts | 303° |
| 2026-04-26 18:40 | 43.08777 | 90.45531 | 32164 ft | 441 kts | 303° |
| 2026-04-26 18:41 | 43.11995 | 90.38366 | 32173 ft | 441 kts | 303° |
| 2026-04-26 18:41 | 43.15184 | 90.31251 | 32205 ft | 441 kts | 303° |
| 2026-04-26 18:42 | 43.18397 | 90.24063 | 32193 ft | 441 kts | 303° |
| 2026-04-26 18:42 | 43.21602 | 90.16868 | 32197 ft | 440 kts | 303° |
| 2026-04-26 18:43 | 43.24797 | 90.09708 | 32236 ft | 441 kts | 303° |
| 2026-04-26 18:43 | 43.27987 | 90.02555 | 32251 ft | 440 kts | 304° |
| 2026-04-26 18:44 | 43.31181 | 89.95362 | 32265 ft | 441 kts | 303° |
| 2026-04-26 18:44 | 43.34391 | 89.88114 | 32237 ft | 441 kts | 303° |
| 2026-04-26 18:45 | 43.37542 | 89.80970 | 32285 ft | 439 kts | 303° |
| 2026-04-26 18:45 | 43.40737 | 89.73734 | 32253 ft | 442 kts | 303° |
| 2026-04-26 18:46 | 43.43923 | 89.66484 | 32258 ft | 441 kts | 303° |
| 2026-04-26 18:46 | 43.47080 | 89.59282 | 32276 ft | 440 kts | 303° |
| 2026-04-26 18:47 | 43.50239 | 89.52062 | 32283 ft | 440 kts | 303° |
| 2026-04-26 18:47 | 43.53388 | 89.44843 | 32279 ft | 441 kts | 303° |
| 2026-04-26 18:48 | 43.56558 | 89.37574 | 32279 ft | 443 kts | 304° |
| 2026-04-26 18:48 | 43.59782 | 89.30332 | 32292 ft | 443 kts | 304° |
| 2026-04-26 18:49 | 43.63015 | 89.23099 | 32287 ft | 443 kts | 304° |
| 2026-04-26 18:49 | 43.66234 | 89.15862 | 32283 ft | 444 kts | 304° |
| 2026-04-26 18:50 | 43.68921 | 89.09798 | 32283 ft | 444 kts | 304° |
| 2026-04-26 18:50 | 43.72155 | 89.02474 | 32270 ft | 443 kts | 304° |
| 2026-04-26 18:51 | 43.75374 | 88.95171 | 32275 ft | 445 kts | 304° |
| 2026-04-26 18:51 | 43.78597 | 88.87845 | 32270 ft | 446 kts | 304° |
| 2026-04-26 18:52 | 43.81804 | 88.80528 | 32281 ft | 446 kts | 304° |
| 2026-04-26 18:52 | 43.85039 | 88.73132 | 32281 ft | 447 kts | 304° |
| 2026-04-26 18:53 | 43.88250 | 88.65770 | 32287 ft | 447 kts | 304° |
| 2026-04-26 18:53 | 43.91442 | 88.58432 | 32286 ft | 447 kts | 304° |
| 2026-04-26 18:54 | 43.94674 | 88.50986 | 32280 ft | 448 kts | 304° |
| 2026-04-26 18:54 | 43.97862 | 88.43621 | 32270 ft | 447 kts | 304° |
| 2026-04-26 18:55 | 44.01066 | 88.36198 | 32273 ft | 448 kts | 304° |
| 2026-04-26 18:55 | 44.04283 | 88.28735 | 32260 ft | 448 kts | 304° |
| 2026-04-26 18:56 | 44.07478 | 88.21294 | 32255 ft | 449 kts | 304° |
| 2026-04-26 18:56 | 44.10671 | 88.13838 | 32245 ft | 449 kts | 304° |
| 2026-04-26 18:57 | 44.13343 | 88.07587 | 32244 ft | 450 kts | 304° |
| 2026-04-26 18:57 | 44.17071 | 87.98872 | 32237 ft | 450 kts | 304° |
| 2026-04-26 18:58 | 44.20734 | 87.91818 | 32226 ft | 448 kts | 310° |
| 2026-04-26 18:58 | 44.24535 | 87.84933 | 32218 ft | 449 kts | 310° |
| 2026-04-26 18:59 | 44.28309 | 87.77966 | 32216 ft | 449 kts | 309° |
| 2026-04-26 18:59 | 44.32062 | 87.70994 | 32213 ft | 449 kts | 309° |
| 2026-04-26 19:00 | 44.35831 | 87.64044 | 32206 ft | 449 kts | 310° |
| 2026-04-26 19:00 | 44.39639 | 87.57147 | 32220 ft | 449 kts | 310° |
| 2026-04-26 19:01 | 44.43460 | 87.50206 | 32219 ft | 449 kts | 310° |
| 2026-04-26 19:01 | 44.47251 | 87.43283 | 32207 ft | 449 kts | 310° |
| 2026-04-26 19:02 | 44.51055 | 87.36315 | 32211 ft | 449 kts | 310° |
| 2026-04-26 19:02 | 44.54203 | 87.30538 | 32208 ft | 449 kts | 310° |
| 2026-04-26 19:03 | 44.58730 | 87.22496 | 32206 ft | 449 kts | 312° |
| 2026-04-26 19:03 | 44.62709 | 87.15723 | 32202 ft | 450 kts | 312° |
| 2026-04-26 19:04 | 44.66678 | 87.08891 | 32197 ft | 450 kts | 311° |
| 2026-04-26 19:04 | 44.70607 | 87.02074 | 32198 ft | 449 kts | 311° |
| 2026-04-26 19:05 | 44.76515 | 86.91815 | 32199 ft | 450 kts | 311° |
| 2026-04-26 19:06 | 44.80467 | 86.84944 | 32193 ft | 451 kts | 311° |
| 2026-04-26 19:06 | 44.84407 | 86.78064 | 32192 ft | 452 kts | 311° |
| 2026-04-26 19:07 | 44.88319 | 86.71116 | 32191 ft | 452 kts | 310° |
| 2026-04-26 19:07 | 44.92216 | 86.64145 | 32185 ft | 452 kts | 310° |
| 2026-04-26 19:08 | 44.96097 | 86.57196 | 32186 ft | 453 kts | 310° |
| 2026-04-26 19:08 | 45.00010 | 86.50180 | 32182 ft | 454 kts | 310° |
| 2026-04-26 19:09 | 45.03938 | 86.43126 | 32181 ft | 454 kts | 310° |
| 2026-04-26 19:09 | 45.07843 | 86.36093 | 32178 ft | 455 kts | 310° |
| 2026-04-26 19:10 | 45.11733 | 86.29068 | 32174 ft | 455 kts | 310° |
| 2026-04-26 19:10 | 45.15659 | 86.21962 | 32177 ft | 455 kts | 310° |
| 2026-04-26 19:11 | 45.19545 | 86.14911 | 32171 ft | 456 kts | 310° |
| 2026-04-26 19:11 | 45.23448 | 86.07812 | 32164 ft | 457 kts | 310° |
| 2026-04-26 19:12 | 45.27367 | 86.00665 | 32167 ft | 457 kts | 309° |
| 2026-04-26 19:12 | 45.31271 | 85.93528 | 32167 ft | 458 kts | 309° |
| 2026-04-26 19:13 | 45.35168 | 85.86386 | 32162 ft | 458 kts | 309° |
| 2026-04-26 19:13 | 45.39085 | 85.79188 | 32163 ft | 458 kts | 309° |
| 2026-04-26 19:14 | 45.42953 | 85.72062 | 32161 ft | 458 kts | 309° |
| 2026-04-26 19:14 | 45.46846 | 85.64872 | 32156 ft | 459 kts | 309° |
| 2026-04-26 19:15 | 45.50737 | 85.57668 | 32159 ft | 459 kts | 309° |
| 2026-04-26 19:15 | 45.54653 | 85.50401 | 32163 ft | 459 kts | 308° |
| 2026-04-26 19:16 | 45.58535 | 85.43176 | 32406 ft | 461 kts | 308° |
| 2026-04-26 19:16 | 45.60481 | 85.39546 | 32780 ft | 458 kts | 308° |
| 2026-04-26 19:16 | 45.62401 | 85.35961 | 33210 ft | 454 kts | 308° |
| 2026-04-26 19:16 | 45.64322 | 85.32369 | 33615 ft | 451 kts | 308° |
| 2026-04-26 19:17 | 45.66227 | 85.28802 | 33977 ft | 449 kts | 308° |
| 2026-04-26 19:17 | 45.68119 | 85.25258 | 34102 ft | 451 kts | 308° |
| 2026-04-26 19:17 | 45.70036 | 85.21663 | 34141 ft | 453 kts | 308° |
| 2026-04-26 19:18 | 45.73861 | 85.14515 | 34168 ft | 452 kts | 308° |
| 2026-04-26 19:18 | 45.77679 | 85.07382 | 34181 ft | 449 kts | 308° |
| 2026-04-26 19:19 | 45.81468 | 85.00281 | 34192 ft | 450 kts | 307° |
| 2026-04-26 19:19 | 45.85285 | 84.93105 | 34196 ft | 452 kts | 307° |
| 2026-04-26 19:20 | 45.89083 | 84.85945 | 34196 ft | 451 kts | 307° |
| 2026-04-26 19:20 | 45.92887 | 84.78756 | 34205 ft | 451 kts | 307° |
| 2026-04-26 19:21 | 45.96663 | 84.71600 | 34206 ft | 451 kts | 307° |
| 2026-04-26 19:21 | 46.00456 | 84.64393 | 34214 ft | 452 kts | 307° |
| 2026-04-26 19:22 | 46.04260 | 84.57149 | 34211 ft | 453 kts | 307° |
| 2026-04-26 19:22 | 46.08064 | 84.49884 | 34216 ft | 454 kts | 307° |
| 2026-04-26 19:23 | 46.11854 | 84.42629 | 34219 ft | 454 kts | 306° |
| 2026-04-26 19:23 | 46.15016 | 84.36561 | 34223 ft | 455 kts | 306° |
| 2026-04-26 19:24 | 46.18806 | 84.29269 | 34220 ft | 455 kts | 306° |
| 2026-04-26 19:24 | 46.24522 | 84.18240 | 34217 ft | 456 kts | 306° |
| 2026-04-26 19:25 | 46.27654 | 84.12172 | 34205 ft | 456 kts | 306° |
| 2026-04-26 19:25 | 46.32049 | 84.03594 | 34199 ft | 455 kts | 306° |
| 2026-04-26 19:26 | 46.35835 | 83.96175 | 34194 ft | 455 kts | 306° |
| 2026-04-26 19:26 | 46.39574 | 83.88833 | 34181 ft | 455 kts | 306° |
| 2026-04-26 19:27 | 46.43325 | 83.81453 | 34178 ft | 454 kts | 306° |
| 2026-04-26 19:27 | 46.47064 | 83.74073 | 34175 ft | 454 kts | 306° |
| 2026-04-26 19:28 | 46.50797 | 83.66688 | 34171 ft | 454 kts | 305° |
| 2026-04-26 19:28 | 46.54527 | 83.59288 | 34170 ft | 453 kts | 305° |
| 2026-04-26 19:29 | 46.58253 | 83.51877 | 34171 ft | 453 kts | 305° |
| 2026-04-26 19:29 | 46.61960 | 83.44483 | 34172 ft | 453 kts | 305° |
| 2026-04-26 19:30 | 46.65678 | 83.37038 | 34173 ft | 453 kts | 304° |
| 2026-04-26 19:30 | 46.68529 | 83.30617 | 34073 ft | 453 kts | 301° |
| 2026-04-26 19:31 | 46.72424 | 83.21552 | 34077 ft | 452 kts | 301° |
| 2026-04-26 19:31 | 46.75769 | 83.13790 | 34078 ft | 453 kts | 301° |
| 2026-04-26 19:32 | 46.79113 | 83.06027 | 34076 ft | 453 kts | 301° |
| 2026-04-26 19:32 | 46.82451 | 82.98262 | 34078 ft | 453 kts | 301° |
| 2026-04-26 19:33 | 46.85491 | 82.90245 | 34070 ft | 451 kts | 291° |
| 2026-04-26 19:33 | 46.87317 | 82.81459 | 34081 ft | 451 kts | 280° |
| 2026-04-26 19:34 | 46.88221 | 82.72388 | 34087 ft | 451 kts | 278° |
| 2026-04-26 19:34 | 46.89121 | 82.63333 | 34075 ft | 451 kts | 278° |
| 2026-04-26 19:35 | 46.90039 | 82.54248 | 34077 ft | 450 kts | 278° |
| 2026-04-26 19:35 | 46.90949 | 82.45227 | 34080 ft | 451 kts | 278° |
| 2026-04-26 19:36 | 46.91711 | 82.37628 | 34073 ft | 451 kts | 278° |
| 2026-04-26 19:36 | 46.92765 | 82.27012 | 34068 ft | 451 kts | 278° |
| 2026-04-26 19:37 | 46.93656 | 82.17947 | 34064 ft | 451 kts | 278° |
| 2026-04-26 19:37 | 46.94544 | 82.08848 | 34064 ft | 451 kts | 277° |
| 2026-04-26 19:38 | 46.95424 | 81.99751 | 34061 ft | 451 kts | 277° |
| 2026-04-26 19:38 | 46.96296 | 81.90650 | 34042 ft | 451 kts | 277° |
| 2026-04-26 19:39 | 46.97154 | 81.81467 | 34052 ft | 451 kts | 277° |
| 2026-04-26 19:39 | 46.97990 | 81.72383 | 34055 ft | 451 kts | 277° |
| 2026-04-26 19:40 | 46.98826 | 81.63261 | 34057 ft | 451 kts | 277° |
| 2026-04-26 19:40 | 46.99654 | 81.54138 | 34055 ft | 451 kts | 276° |
| 2026-04-26 19:41 | 47.00475 | 81.45029 | 34058 ft | 451 kts | 276° |
| 2026-04-26 19:41 | 47.01155 | 81.37412 | 34045 ft | 451 kts | 276° |
| 2026-04-26 19:42 | 47.02093 | 81.26804 | 34050 ft | 450 kts | 276° |
| 2026-04-26 19:42 | 47.02893 | 81.17678 | 34053 ft | 451 kts | 276° |
| 2026-04-26 19:43 | 47.03689 | 81.08505 | 34031 ft | 451 kts | 276° |
| 2026-04-26 19:43 | 47.04474 | 80.99379 | 34029 ft | 451 kts | 276° |
| 2026-04-26 19:44 | 47.05254 | 80.90243 | 34040 ft | 450 kts | 275° |
| 2026-04-26 19:44 | 47.06024 | 80.81134 | 34017 ft | 450 kts | 275° |
| 2026-04-26 19:45 | 47.06787 | 80.72031 | 34011 ft | 449 kts | 275° |
| 2026-04-26 19:45 | 47.07536 | 80.63004 | 34015 ft | 448 kts | 275° |
| 2026-04-26 19:46 | 47.08283 | 80.53916 | 34017 ft | 447 kts | 275° |
| 2026-04-26 19:46 | 47.09018 | 80.44880 | 34009 ft | 446 kts | 275° |
| 2026-04-26 19:47 | 47.09506 | 80.38833 | 34002 ft | 445 kts | 275° |
| 2026-04-26 19:47 | 47.10466 | 80.26823 | 34001 ft | 444 kts | 275° |
| 2026-04-26 19:48 | 47.11175 | 80.17830 | 33999 ft | 444 kts | 275° |
| 2026-04-26 19:48 | 47.11880 | 80.08809 | 33998 ft | 444 kts | 274° |
| 2026-04-26 19:49 | 47.12573 | 79.99850 | 33992 ft | 443 kts | 274° |
| 2026-04-26 19:49 | 47.13264 | 79.90837 | 33989 ft | 442 kts | 274° |
| 2026-04-26 19:50 | 47.13947 | 79.81858 | 33982 ft | 442 kts | 274° |
| 2026-04-26 19:50 | 47.14635 | 79.72873 | 33981 ft | 443 kts | 274° |
| 2026-04-26 19:51 | 47.15317 | 79.63883 | 33980 ft | 443 kts | 274° |
| 2026-04-26 19:51 | 47.15993 | 79.54869 | 33979 ft | 442 kts | 274° |
| 2026-04-26 19:52 | 47.16658 | 79.45888 | 33979 ft | 442 kts | 274° |
| 2026-04-26 19:52 | 47.17319 | 79.36876 | 33979 ft | 442 kts | 274° |
| 2026-04-26 19:53 | 47.17968 | 79.27925 | 33980 ft | 443 kts | 274° |
| 2026-04-26 19:53 | 47.18508 | 79.20415 | 33980 ft | 442 kts | 273° |
| 2026-04-26 19:54 | 47.19250 | 79.09936 | 33978 ft | 442 kts | 273° |
| 2026-04-26 19:54 | 47.19767 | 79.02448 | 33981 ft | 441 kts | 273° |
| 2026-04-26 19:55 | 47.20381 | 78.93450 | 33984 ft | 441 kts | 273° |
| 2026-04-26 19:55 | 47.20987 | 78.84485 | 33983 ft | 440 kts | 273° |
| 2026-04-26 19:56 | 47.21585 | 78.75545 | 33984 ft | 439 kts | 273° |
| 2026-04-26 19:56 | 47.22179 | 78.66561 | 33992 ft | 438 kts | 272° |
| 2026-04-26 19:57 | 47.22762 | 78.57635 | 33990 ft | 438 kts | 272° |
| 2026-04-26 19:57 | 47.23334 | 78.48772 | 33992 ft | 437 kts | 272° |
| 2026-04-26 19:58 | 47.23899 | 78.39894 | 33995 ft | 436 kts | 272° |
| 2026-04-26 19:58 | 47.24464 | 78.30931 | 33993 ft | 436 kts | 272° |
| 2026-04-26 19:59 | 47.25011 | 78.22115 | 34006 ft | 436 kts | 272° |
| 2026-04-26 19:59 | 47.25562 | 78.13138 | 34005 ft | 436 kts | 272° |
| 2026-04-26 20:00 | 47.26100 | 78.04271 | 34000 ft | 435 kts | 272° |
| 2026-04-26 20:00 | 47.26629 | 77.95425 | 34003 ft | 434 kts | 272° |
| 2026-04-26 20:01 | 47.27154 | 77.86523 | 33990 ft | 435 kts | 272° |
| 2026-04-26 20:01 | 47.27671 | 77.77647 | 33985 ft | 435 kts | 272° |
| 2026-04-26 20:02 | 47.28177 | 77.68846 | 34008 ft | 434 kts | 271° |
| 2026-04-26 20:02 | 47.28595 | 77.61467 | 33994 ft | 434 kts | 271° |
| 2026-04-26 20:03 | 47.29175 | 77.51102 | 33983 ft | 434 kts | 271° |
| 2026-04-26 20:03 | 47.29663 | 77.42257 | 33990 ft | 434 kts | 271° |
| 2026-04-26 20:04 | 47.30146 | 77.33352 | 33987 ft | 434 kts | 271° |
| 2026-04-26 20:04 | 47.30622 | 77.24485 | 33986 ft | 434 kts | 271° |
| 2026-04-26 20:05 | 47.31089 | 77.15643 | 33992 ft | 434 kts | 270° |
| 2026-04-26 20:05 | 47.31555 | 77.06738 | 33991 ft | 434 kts | 271° |
| 2026-04-26 20:06 | 47.32388 | 76.97961 | 34004 ft | 435 kts | 274° |
| 2026-04-26 20:06 | 47.33300 | 76.89130 | 34003 ft | 435 kts | 274° |
| 2026-04-26 20:07 | 47.34199 | 76.80241 | 34011 ft | 435 kts | 274° |
| 2026-04-26 20:07 | 47.35076 | 76.71477 | 34017 ft | 435 kts | 274° |
| 2026-04-26 20:08 | 47.35952 | 76.62651 | 34016 ft | 434 kts | 274° |
| 2026-04-26 20:08 | 47.36821 | 76.53822 | 34018 ft | 434 kts | 273° |
| 2026-04-26 20:09 | 47.37684 | 76.45000 | 34027 ft | 434 kts | 273° |
| 2026-04-26 20:09 | 47.38539 | 76.36176 | 34035 ft | 433 kts | 273° |
| 2026-04-26 20:10 | 47.39387 | 76.27353 | 34040 ft | 433 kts | 273° |
| 2026-04-26 20:10 | 47.40225 | 76.18558 | 34043 ft | 432 kts | 273° |
| 2026-04-26 20:11 | 47.41051 | 76.09823 | 34049 ft | 432 kts | 273° |
| 2026-04-26 20:12 | 47.42282 | 75.96657 | 34066 ft | 432 kts | 273° |
| 2026-04-26 20:12 | 47.43100 | 75.87823 | 34072 ft | 431 kts | 272° |
| 2026-04-26 20:13 | 47.43901 | 75.79095 | 34075 ft | 431 kts | 272° |
| 2026-04-26 20:13 | 47.44704 | 75.70259 | 34082 ft | 431 kts | 272° |
| 2026-04-26 20:14 | 47.45496 | 75.61470 | 34087 ft | 431 kts | 272° |
| 2026-04-26 20:14 | 47.46281 | 75.52686 | 34095 ft | 431 kts | 272° |
| 2026-04-26 20:15 | 47.47053 | 75.43974 | 34097 ft | 431 kts | 272° |
| 2026-04-26 20:15 | 47.47829 | 75.35133 | 34112 ft | 430 kts | 272° |
| 2026-04-26 20:16 | 47.48594 | 75.26351 | 34112 ft | 430 kts | 272° |
| 2026-04-26 20:16 | 47.49343 | 75.17659 | 34119 ft | 429 kts | 272° |
| 2026-04-26 20:17 | 47.50091 | 75.08910 | 34125 ft | 429 kts | 272° |
| 2026-04-26 20:17 | 47.50832 | 75.00156 | 34128 ft | 428 kts | 272° |
| 2026-04-26 20:18 | 47.51566 | 74.91412 | 34140 ft | 427 kts | 272° |
| 2026-04-26 20:18 | 47.52289 | 74.82705 | 34153 ft | 427 kts | 272° |
| 2026-04-26 20:19 | 47.53006 | 74.73994 | 34144 ft | 426 kts | 272° |
| 2026-04-26 20:19 | 47.53718 | 74.65257 | 34160 ft | 425 kts | 272° |
| 2026-04-26 20:20 | 47.54418 | 74.56596 | 34150 ft | 424 kts | 272° |
| 2026-04-26 20:20 | 47.55106 | 74.47988 | 34155 ft | 423 kts | 271° |
| 2026-04-26 20:21 | 47.55793 | 74.39313 | 34163 ft | 423 kts | 271° |
| 2026-04-26 20:21 | 47.56474 | 74.30633 | 34171 ft | 423 kts | 271° |
| 2026-04-26 20:22 | 47.57145 | 74.21986 | 34174 ft | 423 kts | 271° |
| 2026-04-26 20:22 | 47.57813 | 74.13308 | 34162 ft | 423 kts | 271° |
| 2026-04-26 20:23 | 47.58470 | 74.04672 | 34173 ft | 422 kts | 271° |
| 2026-04-26 20:23 | 47.59122 | 73.96011 | 34178 ft | 423 kts | 271° |
| 2026-04-26 20:24 | 47.59771 | 73.87302 | 34184 ft | 424 kts | 271° |
| 2026-04-26 20:24 | 47.60409 | 73.78660 | 34185 ft | 424 kts | 271° |
| 2026-04-26 20:25 | 47.61041 | 73.70005 | 34189 ft | 424 kts | 271° |
| 2026-04-26 20:25 | 47.61670 | 73.61304 | 34193 ft | 424 kts | 271° |
| 2026-04-26 20:26 | 47.62292 | 73.52601 | 34196 ft | 425 kts | 271° |
| 2026-04-26 20:26 | 47.62910 | 73.43860 | 34187 ft | 426 kts | 271° |
| 2026-04-26 20:27 | 47.63418 | 73.36595 | 34212 ft | 427 kts | 271° |
| 2026-04-26 20:27 | 47.64026 | 73.27824 | 34202 ft | 427 kts | 271° |
| 2026-04-26 20:28 | 47.64626 | 73.19068 | 34203 ft | 427 kts | 271° |
| 2026-04-26 20:28 | 47.65220 | 73.10295 | 34213 ft | 428 kts | 271° |
| 2026-04-26 20:29 | 47.65810 | 73.01490 | 34214 ft | 428 kts | 271° |
| 2026-04-26 20:29 | 47.66388 | 72.92743 | 34218 ft | 429 kts | 271° |
| 2026-04-26 20:30 | 47.66969 | 72.83874 | 34218 ft | 429 kts | 271° |
| 2026-04-26 20:30 | 47.67535 | 72.75105 | 34223 ft | 429 kts | 271° |
| 2026-04-26 20:31 | 47.68098 | 72.66295 | 34224 ft | 430 kts | 271° |
| 2026-04-26 20:31 | 47.68656 | 72.57452 | 34229 ft | 430 kts | 271° |
| 2026-04-26 20:32 | 47.69207 | 72.48595 | 34227 ft | 429 kts | 271° |
| 2026-04-26 20:32 | 47.69750 | 72.39770 | 34235 ft | 430 kts | 271° |
| 2026-04-26 20:33 | 47.70287 | 72.30926 | 34243 ft | 430 kts | 271° |
| 2026-04-26 20:33 | 47.70817 | 72.22084 | 34238 ft | 430 kts | 271° |
| 2026-04-26 20:34 | 47.71343 | 72.13194 | 34248 ft | 431 kts | 271° |
| 2026-04-26 20:34 | 47.71860 | 72.04330 | 34242 ft | 432 kts | 271° |
| 2026-04-26 20:35 | 47.72374 | 71.95413 | 34244 ft | 432 kts | 271° |
| 2026-04-26 20:35 | 47.72880 | 71.86520 | 34249 ft | 432 kts | 271° |
| 2026-04-26 20:36 | 47.73348 | 71.77614 | 34256 ft | 432 kts | 270° |
| 2026-04-26 20:36 | 47.73714 | 71.68722 | 34253 ft | 432 kts | 270° |
| 2026-04-26 20:37 | 47.74064 | 71.59834 | 34257 ft | 433 kts | 270° |
| 2026-04-26 20:37 | 47.74418 | 71.50925 | 34262 ft | 433 kts | 270° |
| 2026-04-26 20:38 | 47.74774 | 71.41974 | 34264 ft | 433 kts | 270° |
| 2026-04-26 20:38 | 47.75124 | 71.33033 | 34270 ft | 433 kts | 270° |
| 2026-04-26 20:39 | 47.75467 | 71.24072 | 34266 ft | 434 kts | 270° |
| 2026-04-26 20:39 | 47.75804 | 71.15121 | 34271 ft | 434 kts | 270° |
| 2026-04-26 20:40 | 47.76133 | 71.06144 | 34269 ft | 435 kts | 270° |
| 2026-04-26 20:40 | 47.76456 | 70.97181 | 34273 ft | 435 kts | 270° |
| 2026-04-26 20:41 | 47.76772 | 70.88194 | 34275 ft | 435 kts | 270° |
| 2026-04-26 20:41 | 47.77081 | 70.79192 | 34272 ft | 436 kts | 270° |
| 2026-04-26 20:42 | 47.77384 | 70.70193 | 34277 ft | 436 kts | 270° |
| 2026-04-26 20:42 | 47.77679 | 70.61197 | 34269 ft | 436 kts | 270° |
| 2026-04-26 20:43 | 47.77969 | 70.52166 | 34279 ft | 437 kts | 270° |
| 2026-04-26 20:43 | 47.78251 | 70.43141 | 34271 ft | 437 kts | 269° |
| 2026-04-26 20:44 | 47.78526 | 70.34119 | 34269 ft | 437 kts | 269° |
| 2026-04-26 20:44 | 47.78793 | 70.25114 | 34276 ft | 437 kts | 269° |
| 2026-04-26 20:45 | 47.79053 | 70.16099 | 34275 ft | 436 kts | 269° |
| 2026-04-26 20:45 | 47.79309 | 70.07020 | 34283 ft | 436 kts | 269° |
| 2026-04-26 20:46 | 47.79555 | 69.97999 | 34292 ft | 436 kts | 269° |
| 2026-04-26 20:46 | 47.79793 | 69.89013 | 34280 ft | 436 kts | 269° |
| 2026-04-26 20:47 | 47.80026 | 69.79976 | 34281 ft | 437 kts | 269° |
| 2026-04-26 20:47 | 47.80251 | 69.70955 | 34280 ft | 436 kts | 269° |
| 2026-04-26 20:48 | 47.80469 | 69.61944 | 34283 ft | 436 kts | 269° |
| 2026-04-26 20:48 | 47.80680 | 69.52937 | 34280 ft | 435 kts | 269° |
| 2026-04-26 20:49 | 47.80883 | 69.43955 | 34283 ft | 435 kts | 269° |
| 2026-04-26 20:49 | 47.81080 | 69.34896 | 34282 ft | 435 kts | 269° |
| 2026-04-26 20:50 | 47.81269 | 69.25936 | 34281 ft | 435 kts | 269° |
| 2026-04-26 20:50 | 47.81450 | 69.16978 | 34284 ft | 435 kts | 269° |
| 2026-04-26 20:51 | 47.81626 | 69.07962 | 34285 ft | 435 kts | 269° |
| 2026-04-26 20:51 | 47.81795 | 68.98933 | 34286 ft | 434 kts | 269° |
| 2026-04-26 20:52 | 47.81957 | 68.89966 | 34287 ft | 434 kts | 269° |
| 2026-04-26 20:52 | 47.82015 | 68.80984 | 34289 ft | 433 kts | 264° |
| 2026-04-26 20:53 | 47.81235 | 68.72134 | 34292 ft | 431 kts | 260° |
| 2026-04-26 20:53 | 47.80408 | 68.63263 | 34294 ft | 431 kts | 260° |
| 2026-04-26 20:54 | 47.79606 | 68.54426 | 34293 ft | 431 kts | 260° |
| 2026-04-26 20:54 | 47.78792 | 68.45607 | 34295 ft | 430 kts | 260° |
| 2026-04-26 20:55 | 47.77975 | 68.36874 | 34293 ft | 430 kts | 260° |
| 2026-04-26 20:55 | 47.77137 | 68.28010 | 34298 ft | 430 kts | 260° |
| 2026-04-26 20:56 | 47.76297 | 68.19196 | 34295 ft | 430 kts | 260° |
| 2026-04-26 20:56 | 47.75447 | 68.10353 | 34298 ft | 429 kts | 260° |
| 2026-04-26 20:57 | 47.74599 | 68.01602 | 34295 ft | 429 kts | 260° |
| 2026-04-26 20:57 | 47.73742 | 67.92829 | 34296 ft | 429 kts | 260° |
| 2026-04-26 20:58 | 47.72879 | 67.84050 | 34297 ft | 428 kts | 260° |
| 2026-04-26 20:58 | 47.71990 | 67.75363 | 34295 ft | 428 kts | 257° |
| 2026-04-26 20:59 | 47.70931 | 67.68188 | 34303 ft | 428 kts | 256° |
| 2026-04-26 20:59 | 47.69641 | 67.59555 | 34296 ft | 428 kts | 256° |
| 2026-04-26 21:00 | 47.68353 | 67.50899 | 34306 ft | 428 kts | 256° |
| 2026-04-26 21:00 | 47.67072 | 67.42324 | 34301 ft | 427 kts | 256° |
| 2026-04-26 21:01 | 47.65768 | 67.33639 | 34303 ft | 428 kts | 256° |
| 2026-04-26 21:01 | 47.64474 | 67.25081 | 34299 ft | 428 kts | 256° |
| 2026-04-26 21:02 | 47.63167 | 67.16473 | 34305 ft | 427 kts | 256° |
| 2026-04-26 21:02 | 47.61846 | 67.07825 | 34302 ft | 427 kts | 256° |
| 2026-04-26 21:03 | 47.60535 | 66.99286 | 34303 ft | 427 kts | 256° |
| 2026-04-26 21:03 | 47.59209 | 66.90696 | 34303 ft | 428 kts | 256° |
| 2026-04-26 21:04 | 47.57876 | 66.82106 | 34309 ft | 428 kts | 256° |
| 2026-04-26 21:04 | 47.56538 | 66.73519 | 34308 ft | 428 kts | 256° |
| 2026-04-26 21:05 | 47.55155 | 66.64918 | 34309 ft | 428 kts | 256° |
| 2026-04-26 21:05 | 47.53736 | 66.56368 | 34302 ft | 428 kts | 255° |
| 2026-04-26 21:06 | 47.52316 | 66.47830 | 34302 ft | 428 kts | 256° |
| 2026-04-26 21:06 | 47.50889 | 66.39257 | 34304 ft | 428 kts | 256° |
| 2026-04-26 21:07 | 47.49464 | 66.30730 | 34308 ft | 428 kts | 256° |
| 2026-04-26 21:07 | 47.48021 | 66.22138 | 34302 ft | 428 kts | 256° |
| 2026-04-26 21:08 | 47.46581 | 66.13604 | 34296 ft | 428 kts | 256° |
| 2026-04-26 21:08 | 47.45139 | 66.05105 | 34295 ft | 428 kts | 256° |
| 2026-04-26 21:09 | 47.43684 | 65.96565 | 34296 ft | 428 kts | 256° |
| 2026-04-26 21:09 | 47.42221 | 65.88016 | 34299 ft | 429 kts | 256° |
| 2026-04-26 21:10 | 47.40771 | 65.79488 | 34295 ft | 429 kts | 256° |
| 2026-04-26 21:10 | 47.39361 | 65.70943 | 34294 ft | 429 kts | 256° |
| 2026-04-26 21:11 | 47.37946 | 65.62382 | 34290 ft | 429 kts | 256° |
| 2026-04-26 21:11 | 47.36519 | 65.53818 | 34290 ft | 429 kts | 256° |
| 2026-04-26 21:12 | 47.35095 | 65.45334 | 34286 ft | 429 kts | 256° |
| 2026-04-26 21:12 | 47.33645 | 65.36743 | 34283 ft | 429 kts | 256° |
| 2026-04-26 21:13 | 47.32196 | 65.28197 | 34284 ft | 429 kts | 256° |
| 2026-04-26 21:13 | 47.30750 | 65.19711 | 34282 ft | 429 kts | 256° |
| 2026-04-26 21:14 | 47.29289 | 65.11179 | 34283 ft | 429 kts | 256° |
| 2026-04-26 21:14 | 47.27816 | 65.02614 | 34281 ft | 429 kts | 256° |
| 2026-04-26 21:15 | 47.26352 | 64.94148 | 34281 ft | 429 kts | 256° |
| 2026-04-26 21:15 | 47.24876 | 64.85648 | 34277 ft | 428 kts | 256° |
| 2026-04-26 21:16 | 47.23392 | 64.77147 | 34277 ft | 429 kts | 256° |
| 2026-04-26 21:16 | 47.21905 | 64.68666 | 34279 ft | 429 kts | 256° |
| 2026-04-26 21:17 | 47.20399 | 64.60114 | 34279 ft | 430 kts | 256° |
| 2026-04-26 21:17 | 47.18892 | 64.51602 | 34279 ft | 430 kts | 256° |
| 2026-04-26 21:18 | 47.17389 | 64.43120 | 34273 ft | 430 kts | 256° |
| 2026-04-26 21:18 | 47.15870 | 64.34571 | 34274 ft | 430 kts | 256° |
| 2026-04-26 21:19 | 47.14365 | 64.26138 | 34275 ft | 430 kts | 256° |
| 2026-04-26 21:19 | 47.12832 | 64.17584 | 34276 ft | 430 kts | 256° |
| 2026-04-26 21:20 | 47.11309 | 64.09135 | 34270 ft | 430 kts | 256° |
| 2026-04-26 21:20 | 47.09776 | 64.00665 | 34271 ft | 430 kts | 256° |
| 2026-04-26 21:21 | 47.08229 | 63.92160 | 34272 ft | 430 kts | 256° |
| 2026-04-26 21:21 | 47.06681 | 63.83684 | 34268 ft | 430 kts | 256° |
| 2026-04-26 21:22 | 47.05119 | 63.75180 | 34267 ft | 430 kts | 256° |
| 2026-04-26 21:22 | 47.03568 | 63.66764 | 34268 ft | 431 kts | 256° |
| 2026-04-26 21:23 | 47.01202 | 63.54010 | 34266 ft | 431 kts | 256° |
| 2026-04-26 21:23 | 46.99627 | 63.45563 | 34268 ft | 431 kts | 256° |
| 2026-04-26 21:24 | 46.98037 | 63.37077 | 34268 ft | 431 kts | 255° |
| 2026-04-26 21:24 | 46.96436 | 63.28573 | 34273 ft | 432 kts | 255° |
| 2026-04-26 21:25 | 46.94832 | 63.20090 | 34270 ft | 432 kts | 255° |
| 2026-04-26 21:25 | 46.93228 | 63.11642 | 34268 ft | 432 kts | 255° |
| 2026-04-26 21:26 | 46.91615 | 63.03188 | 34266 ft | 432 kts | 255° |
| 2026-04-26 21:26 | 46.89996 | 62.94735 | 34267 ft | 432 kts | 255° |
| 2026-04-26 21:27 | 46.88362 | 62.86248 | 34265 ft | 432 kts | 255° |
| 2026-04-26 21:27 | 46.86729 | 62.77798 | 34256 ft | 432 kts | 255° |
| 2026-04-26 21:28 | 46.85089 | 62.69346 | 34267 ft | 432 kts | 255° |
| 2026-04-26 21:28 | 46.83452 | 62.60946 | 34258 ft | 433 kts | 255° |
| 2026-04-26 21:29 | 46.81784 | 62.52437 | 34264 ft | 433 kts | 255° |
| 2026-04-26 21:29 | 46.80118 | 62.43982 | 34262 ft | 433 kts | 255° |
| 2026-04-26 21:30 | 46.78459 | 62.35598 | 34260 ft | 433 kts | 255° |
| 2026-04-26 21:30 | 46.77050 | 62.28495 | 34262 ft | 434 kts | 255° |
| 2026-04-26 21:31 | 46.75093 | 62.18678 | 34262 ft | 434 kts | 255° |
| 2026-04-26 21:31 | 46.73405 | 62.10245 | 34259 ft | 433 kts | 255° |
| 2026-04-26 21:32 | 46.71709 | 62.01813 | 34261 ft | 434 kts | 255° |
| 2026-04-26 21:32 | 46.70012 | 61.93406 | 34261 ft | 434 kts | 255° |
| 2026-04-26 21:33 | 46.68293 | 61.84930 | 34266 ft | 434 kts | 255° |
| 2026-04-26 21:33 | 46.66578 | 61.76511 | 34264 ft | 434 kts | 255° |
| 2026-04-26 21:34 | 46.65148 | 61.69516 | 34263 ft | 435 kts | 255° |
| 2026-04-26 21:34 | 46.63413 | 61.61065 | 34260 ft | 435 kts | 254° |
| 2026-04-26 21:35 | 46.61673 | 61.52619 | 34256 ft | 435 kts | 254° |
| 2026-04-26 21:35 | 46.59930 | 61.44198 | 34262 ft | 435 kts | 254° |
| 2026-04-26 21:36 | 46.58178 | 61.35773 | 34258 ft | 435 kts | 254° |
| 2026-04-26 21:36 | 46.56430 | 61.27395 | 34260 ft | 436 kts | 254° |
| 2026-04-26 21:37 | 46.54662 | 61.18960 | 34256 ft | 436 kts | 254° |
| 2026-04-26 21:37 | 46.52889 | 61.10534 | 34251 ft | 436 kts | 254° |
| 2026-04-26 21:38 | 46.51112 | 61.02128 | 34251 ft | 436 kts | 254° |
| 2026-04-26 21:38 | 46.49324 | 60.93702 | 34257 ft | 436 kts | 254° |
| 2026-04-26 21:39 | 46.47526 | 60.85265 | 34248 ft | 436 kts | 254° |
| 2026-04-26 21:39 | 46.45728 | 60.76859 | 34250 ft | 436 kts | 254° |
| 2026-04-26 21:40 | 46.43922 | 60.68452 | 34250 ft | 437 kts | 254° |
| 2026-04-26 21:40 | 46.42105 | 60.60027 | 34254 ft | 437 kts | 253° |
| 2026-04-26 21:41 | 46.40283 | 60.51613 | 34249 ft | 437 kts | 253° |
| 2026-04-26 21:41 | 46.38468 | 60.43270 | 34248 ft | 437 kts | 253° |
| 2026-04-26 21:42 | 46.36630 | 60.34851 | 34247 ft | 437 kts | 253° |
| 2026-04-26 21:42 | 46.34791 | 60.26460 | 34240 ft | 438 kts | 253° |
| 2026-04-26 21:43 | 46.32931 | 60.18007 | 34241 ft | 439 kts | 253° |
| 2026-04-26 21:43 | 46.31084 | 60.09651 | 34254 ft | 438 kts | 253° |
| 2026-04-26 21:44 | 46.29224 | 60.01264 | 34255 ft | 439 kts | 253° |
| 2026-04-26 21:44 | 46.27351 | 59.92851 | 34250 ft | 440 kts | 253° |
| 2026-04-26 21:45 | 46.25468 | 59.84431 | 34228 ft | 440 kts | 253° |
| 2026-04-26 21:45 | 46.23576 | 59.75991 | 34237 ft | 440 kts | 253° |
| 2026-04-26 21:46 | 46.21675 | 59.67578 | 34246 ft | 440 kts | 253° |
| 2026-04-26 21:46 | 46.19760 | 59.59195 | 34232 ft | 440 kts | 253° |
| 2026-04-26 21:47 | 46.17834 | 59.50796 | 34238 ft | 440 kts | 253° |
| 2026-04-26 21:47 | 46.15905 | 59.42405 | 34240 ft | 440 kts | 252° |
| 2026-04-26 21:48 | 46.13965 | 59.33997 | 34234 ft | 441 kts | 252° |
| 2026-04-26 21:48 | 46.12023 | 59.25612 | 34235 ft | 441 kts | 252° |
| 2026-04-26 21:49 | 46.10075 | 59.17229 | 34233 ft | 441 kts | 252° |
| 2026-04-26 21:49 | 46.08127 | 59.08880 | 34231 ft | 441 kts | 252° |
| 2026-04-26 21:50 | 46.06493 | 59.01906 | 34237 ft | 441 kts | 252° |
| 2026-04-26 21:50 | 46.04191 | 58.92113 | 34231 ft | 442 kts | 252° |
| 2026-04-26 21:51 | 46.02213 | 58.83729 | 34229 ft | 442 kts | 252° |
| 2026-04-26 21:51 | 46.00236 | 58.75385 | 34229 ft | 442 kts | 252° |
| 2026-04-26 21:52 | 45.98231 | 58.66958 | 34227 ft | 442 kts | 252° |
| 2026-04-26 21:52 | 45.96249 | 58.58654 | 34225 ft | 442 kts | 252° |
| 2026-04-26 21:53 | 45.94244 | 58.50291 | 34224 ft | 442 kts | 252° |
| 2026-04-26 21:53 | 45.92221 | 58.41880 | 34223 ft | 443 kts | 252° |
| 2026-04-26 21:54 | 45.90205 | 58.33530 | 34224 ft | 443 kts | 252° |
| 2026-04-26 21:54 | 45.88180 | 58.25176 | 34226 ft | 442 kts | 251° |
| 2026-04-26 21:55 | 45.86178 | 58.16945 | 34226 ft | 443 kts | 251° |
| 2026-04-26 21:55 | 45.84113 | 58.08488 | 34219 ft | 443 kts | 251° |
| 2026-04-26 21:56 | 45.82083 | 58.00202 | 34212 ft | 442 kts | 251° |
| 2026-04-26 21:56 | 45.80038 | 57.91888 | 34215 ft | 442 kts | 251° |
| 2026-04-26 21:57 | 45.77985 | 57.83571 | 34209 ft | 443 kts | 251° |
| 2026-04-26 21:57 | 45.75936 | 57.75295 | 34206 ft | 443 kts | 251° |
| 2026-04-26 21:58 | 45.73867 | 57.66972 | 34206 ft | 443 kts | 251° |
| 2026-04-26 21:58 | 45.71791 | 57.58657 | 34206 ft | 443 kts | 251° |
| 2026-04-26 21:59 | 45.69699 | 57.50303 | 34203 ft | 443 kts | 251° |
| 2026-04-26 21:59 | 45.67619 | 57.42023 | 34202 ft | 442 kts | 251° |
| 2026-04-26 22:00 | 45.65531 | 57.33738 | 34203 ft | 442 kts | 251° |
| 2026-04-26 22:00 | 45.63433 | 57.25446 | 34201 ft | 443 kts | 251° |
| 2026-04-26 22:01 | 45.61347 | 57.17226 | 34194 ft | 443 kts | 251° |
| 2026-04-26 22:01 | 45.59240 | 57.08962 | 34177 ft | 443 kts | 251° |
| 2026-04-26 22:02 | 45.57480 | 57.02074 | 34187 ft | 442 kts | 251° |
| 2026-04-26 22:02 | 45.55006 | 56.92428 | 34196 ft | 443 kts | 251° |
| 2026-04-26 22:03 | 45.52881 | 56.84173 | 34184 ft | 443 kts | 251° |
| 2026-04-26 22:03 | 45.50763 | 56.75979 | 34187 ft | 442 kts | 251° |
| 2026-04-26 22:04 | 45.48617 | 56.67705 | 34181 ft | 442 kts | 251° |
| 2026-04-26 22:04 | 45.46476 | 56.59478 | 34183 ft | 442 kts | 251° |
| 2026-04-26 22:05 | 45.44345 | 56.51317 | 34179 ft | 442 kts | 250° |
| 2026-04-26 22:05 | 45.42191 | 56.43101 | 34180 ft | 442 kts | 250° |
| 2026-04-26 22:06 | 45.40038 | 56.34913 | 34177 ft | 442 kts | 250° |
| 2026-04-26 22:06 | 45.37876 | 56.26722 | 34180 ft | 442 kts | 250° |
| 2026-04-26 22:07 | 45.36082 | 56.19947 | 34171 ft | 441 kts | 250° |
| 2026-04-26 22:07 | 45.33897 | 56.11717 | 34180 ft | 441 kts | 250° |
| 2026-04-26 22:08 | 45.31738 | 56.03616 | 34164 ft | 441 kts | 250° |
| 2026-04-26 22:08 | 45.29551 | 55.95439 | 34171 ft | 441 kts | 250° |
| 2026-04-26 22:09 | 45.27370 | 55.87311 | 34168 ft | 441 kts | 250° |
| 2026-04-26 22:09 | 45.25175 | 55.79157 | 34162 ft | 441 kts | 250° |
| 2026-04-26 22:10 | 45.22982 | 55.71042 | 34160 ft | 440 kts | 250° |
| 2026-04-26 22:10 | 45.20779 | 55.62913 | 34158 ft | 440 kts | 250° |
| 2026-04-26 22:11 | 45.18591 | 55.54870 | 34153 ft | 440 kts | 250° |
| 2026-04-26 22:11 | 45.16381 | 55.46771 | 34160 ft | 440 kts | 250° |
| 2026-04-26 22:12 | 45.14167 | 55.38682 | 34152 ft | 440 kts | 250° |
| 2026-04-26 22:12 | 45.11953 | 55.30617 | 34150 ft | 440 kts | 250° |
| 2026-04-26 22:13 | 45.09633 | 55.22591 | 34141 ft | 441 kts | 244° |
| 2026-04-26 22:13 | 45.06171 | 55.15392 | 34146 ft | 444 kts | 233° |
| 2026-04-26 22:14 | 45.01767 | 55.09263 | 34141 ft | 447 kts | 225° |
| 2026-04-26 22:14 | 44.97151 | 55.03373 | 34141 ft | 447 kts | 226° |
| 2026-04-26 22:15 | 44.92547 | 54.97439 | 34136 ft | 447 kts | 226° |
| 2026-04-26 22:15 | 44.87928 | 54.91477 | 34136 ft | 447 kts | 226° |
| 2026-04-26 22:16 | 44.83348 | 54.85575 | 34135 ft | 446 kts | 226° |
| 2026-04-26 22:16 | 44.78758 | 54.79675 | 34132 ft | 447 kts | 226° |
| 2026-04-26 22:17 | 44.74160 | 54.73777 | 34134 ft | 447 kts | 226° |
| 2026-04-26 22:17 | 44.69546 | 54.67874 | 34132 ft | 447 kts | 226° |
| 2026-04-26 22:18 | 44.65248 | 54.61656 | 34123 ft | 441 kts | 234° |
| 2026-04-26 22:18 | 44.61756 | 54.54662 | 34128 ft | 440 kts | 238° |
| 2026-04-26 22:19 | 44.58233 | 54.47551 | 34121 ft | 441 kts | 238° |
| 2026-04-26 22:19 | 44.54727 | 54.40558 | 34122 ft | 440 kts | 238° |
| 2026-04-26 22:20 | 44.51216 | 54.33558 | 34115 ft | 439 kts | 238° |
| 2026-04-26 22:20 | 44.47695 | 54.26543 | 34122 ft | 439 kts | 238° |
| 2026-04-26 22:21 | 44.44172 | 54.19537 | 34111 ft | 439 kts | 238° |
| 2026-04-26 22:21 | 44.40664 | 54.12575 | 34117 ft | 439 kts | 238° |
| 2026-04-26 22:22 | 44.37134 | 54.05588 | 34108 ft | 439 kts | 238° |
| 2026-04-26 22:22 | 44.33601 | 53.98614 | 34109 ft | 439 kts | 238° |
| 2026-04-26 22:23 | 44.30076 | 53.91670 | 34102 ft | 438 kts | 238° |
| 2026-04-26 22:23 | 44.26569 | 53.84778 | 34108 ft | 438 kts | 238° |
| 2026-04-26 22:24 | 44.23028 | 53.77837 | 34095 ft | 438 kts | 237° |
| 2026-04-26 22:24 | 44.19497 | 53.70931 | 34098 ft | 437 kts | 237° |
| 2026-04-26 22:25 | 44.15941 | 53.63995 | 34090 ft | 437 kts | 237° |
| 2026-04-26 22:25 | 44.12397 | 53.57096 | 34091 ft | 437 kts | 237° |
| 2026-04-26 22:26 | 44.08866 | 53.50239 | 34081 ft | 437 kts | 237° |
| 2026-04-26 22:26 | 44.05306 | 53.43342 | 34081 ft | 437 kts | 237° |
| 2026-04-26 22:27 | 44.01752 | 53.36470 | 34073 ft | 437 kts | 237° |
| 2026-04-26 22:27 | 43.98218 | 53.29657 | 34079 ft | 437 kts | 237° |
| 2026-04-26 22:28 | 43.94643 | 53.22780 | 34071 ft | 436 kts | 237° |
| 2026-04-26 22:28 | 43.91110 | 53.15993 | 34074 ft | 436 kts | 237° |
| 2026-04-26 22:29 | 43.87537 | 53.09152 | 34071 ft | 436 kts | 237° |
| 2026-04-26 22:29 | 43.83986 | 53.02364 | 34069 ft | 436 kts | 237° |
| 2026-04-26 22:30 | 43.80419 | 52.95555 | 34067 ft | 436 kts | 237° |
| 2026-04-26 22:30 | 43.76858 | 52.88772 | 34069 ft | 436 kts | 237° |
| 2026-04-26 22:31 | 43.73291 | 52.81993 | 34057 ft | 435 kts | 237° |
| 2026-04-26 22:31 | 43.69713 | 52.75205 | 34068 ft | 434 kts | 237° |
| 2026-04-26 22:32 | 43.66143 | 52.68452 | 34055 ft | 434 kts | 236° |
| 2026-04-26 22:32 | 43.62570 | 52.61741 | 34059 ft | 433 kts | 236° |
| 2026-04-26 22:33 | 43.57206 | 52.51733 | 34045 ft | 433 kts | 236° |
| 2026-04-26 22:34 | 43.53631 | 52.45074 | 34047 ft | 433 kts | 236° |
| 2026-04-26 22:34 | 43.50031 | 52.38379 | 34042 ft | 433 kts | 236° |
| 2026-04-26 22:35 | 43.46427 | 52.31692 | 34035 ft | 433 kts | 236° |
| 2026-04-26 22:35 | 43.42855 | 52.25080 | 34029 ft | 433 kts | 236° |
| 2026-04-26 22:36 | 43.39258 | 52.18436 | 34024 ft | 433 kts | 236° |
| 2026-04-26 22:36 | 43.35654 | 52.11795 | 34025 ft | 433 kts | 236° |
| 2026-04-26 22:37 | 43.32047 | 52.05161 | 34017 ft | 434 kts | 236° |
| 2026-04-26 22:37 | 43.28429 | 51.98525 | 34016 ft | 434 kts | 236° |
| 2026-04-26 22:38 | 43.24786 | 51.91857 | 34009 ft | 434 kts | 236° |
| 2026-04-26 22:38 | 43.21192 | 51.85291 | 33999 ft | 433 kts | 236° |
| 2026-04-26 22:39 | 43.17557 | 51.78669 | 34005 ft | 433 kts | 236° |
| 2026-04-26 22:39 | 43.13934 | 51.72081 | 34000 ft | 434 kts | 236° |
| 2026-04-26 22:40 | 43.10295 | 51.65479 | 33993 ft | 434 kts | 235° |
| 2026-04-26 22:40 | 43.06657 | 51.58893 | 33994 ft | 434 kts | 235° |
| 2026-04-26 22:41 | 43.03011 | 51.52309 | 33992 ft | 433 kts | 235° |
| 2026-04-26 22:41 | 42.99383 | 51.45771 | 33986 ft | 433 kts | 235° |
| 2026-04-26 22:42 | 42.96340 | 51.40297 | 33982 ft | 434 kts | 235° |
| 2026-04-26 22:42 | 42.92688 | 51.33744 | 33983 ft | 434 kts | 235° |
| 2026-04-26 22:43 | 42.89043 | 51.27216 | 33975 ft | 433 kts | 235° |
| 2026-04-26 22:43 | 42.85357 | 51.20629 | 33971 ft | 433 kts | 235° |
| 2026-04-26 22:44 | 42.81700 | 51.14107 | 33968 ft | 433 kts | 235° |
| 2026-04-26 22:44 | 42.78036 | 51.07590 | 33970 ft | 433 kts | 235° |
| 2026-04-26 22:45 | 42.74373 | 51.01088 | 33966 ft | 433 kts | 235° |
| 2026-04-26 22:45 | 42.70739 | 50.94650 | 33962 ft | 432 kts | 235° |
| 2026-04-26 22:46 | 42.67076 | 50.88176 | 33958 ft | 431 kts | 235° |
| 2026-04-26 22:46 | 42.63423 | 50.81733 | 33954 ft | 430 kts | 235° |
| 2026-04-26 22:47 | 42.59767 | 50.75298 | 33950 ft | 430 kts | 235° |
| 2026-04-26 22:47 | 42.56108 | 50.68872 | 33947 ft | 430 kts | 235° |
| 2026-04-26 22:48 | 42.52441 | 50.62444 | 33940 ft | 430 kts | 235° |
| 2026-04-26 22:48 | 42.48777 | 50.56035 | 33932 ft | 430 kts | 235° |
| 2026-04-26 22:49 | 42.45096 | 50.49609 | 33933 ft | 430 kts | 235° |
| 2026-04-26 22:49 | 42.41491 | 50.43192 | 33944 ft | 429 kts | 237° |
| 2026-04-26 22:50 | 42.38036 | 50.36595 | 33939 ft | 428 kts | 238° |
| 2026-04-26 22:50 | 42.34600 | 50.30012 | 33938 ft | 429 kts | 238° |
| 2026-04-26 22:51 | 42.31130 | 50.23432 | 33921 ft | 429 kts | 237° |
| 2026-04-26 22:51 | 42.27661 | 50.16898 | 33924 ft | 428 kts | 237° |
| 2026-04-26 22:52 | 42.24205 | 50.10409 | 33920 ft | 429 kts | 237° |
| 2026-04-26 22:52 | 42.20700 | 50.03842 | 33909 ft | 429 kts | 237° |
| 2026-04-26 22:53 | 42.17213 | 49.97322 | 33902 ft | 429 kts | 237° |
| 2026-04-26 22:53 | 42.13728 | 49.90821 | 33904 ft | 429 kts | 237° |
| 2026-04-26 22:54 | 42.10225 | 49.84299 | 33889 ft | 428 kts | 237° |
| 2026-04-26 22:54 | 42.06724 | 49.77794 | 33885 ft | 428 kts | 237° |
| 2026-04-26 22:55 | 42.03220 | 49.71299 | 33882 ft | 428 kts | 237° |
| 2026-04-26 22:55 | 41.99741 | 49.64863 | 33882 ft | 428 kts | 237° |
| 2026-04-26 22:56 | 41.96250 | 49.58418 | 33878 ft | 428 kts | 237° |
| 2026-04-26 22:56 | 41.92718 | 49.51912 | 33871 ft | 428 kts | 237° |
| 2026-04-26 22:57 | 41.89219 | 49.45479 | 33870 ft | 428 kts | 237° |
| 2026-04-26 22:57 | 41.85695 | 49.39014 | 33863 ft | 428 kts | 237° |
| 2026-04-26 22:58 | 41.82172 | 49.32564 | 33867 ft | 427 kts | 237° |
| 2026-04-26 22:58 | 41.78746 | 49.26079 | 33864 ft | 426 kts | 239° |
| 2026-04-26 22:59 | 41.75496 | 49.19436 | 33865 ft | 426 kts | 240° |
| 2026-04-26 22:59 | 41.72251 | 49.12823 | 33864 ft | 426 kts | 239° |
| 2026-04-26 23:00 | 41.68964 | 49.06207 | 33865 ft | 425 kts | 239° |
| 2026-04-26 23:00 | 41.65674 | 48.99625 | 33872 ft | 424 kts | 239° |
| 2026-04-26 23:01 | 41.62392 | 48.93075 | 33866 ft | 423 kts | 239° |
| 2026-04-26 23:01 | 41.59127 | 48.86570 | 33871 ft | 422 kts | 239° |
| 2026-04-26 23:02 | 41.55859 | 48.80068 | 33867 ft | 423 kts | 239° |
| 2026-04-26 23:02 | 41.52554 | 48.73515 | 33875 ft | 423 kts | 239° |
| 2026-04-26 23:03 | 41.49089 | 48.67228 | 33871 ft | 424 kts | 236° |
| 2026-04-26 23:03 | 41.45491 | 48.60967 | 33873 ft | 422 kts | 236° |
| 2026-04-26 23:04 | 41.41951 | 48.54687 | 33868 ft | 423 kts | 236° |
| 2026-04-26 23:04 | 41.38477 | 48.48335 | 33874 ft | 425 kts | 237° |
| 2026-04-26 23:05 | 41.35016 | 48.41943 | 33880 ft | 426 kts | 237° |
| 2026-04-26 23:05 | 41.31530 | 48.35540 | 34156 ft | 427 kts | 237° |
| 2026-04-26 23:05 | 41.29793 | 48.32358 | 34371 ft | 427 kts | 237° |
| 2026-04-26 23:06 | 41.28061 | 48.29191 | 34641 ft | 426 kts | 237° |
| 2026-04-26 23:06 | 41.26290 | 48.25960 | 34880 ft | 426 kts | 236° |
| 2026-04-26 23:06 | 41.24557 | 48.22800 | 35109 ft | 427 kts | 236° |
| 2026-04-26 23:06 | 41.22809 | 48.19614 | 35316 ft | 427 kts | 236° |
| 2026-04-26 23:07 | 41.21060 | 48.16429 | 35481 ft | 428 kts | 236° |
| 2026-04-26 23:07 | 41.19886 | 48.14295 | 35599 ft | 428 kts | 236° |
| 2026-04-26 23:07 | 41.17540 | 48.10032 | 35834 ft | 430 kts | 236° |
| 2026-04-26 23:08 | 41.13986 | 48.03574 | 35921 ft | 430 kts | 238° |
| 2026-04-26 23:08 | 41.12574 | 48.00135 | 35946 ft | 426 kts | 252° |
| 2026-04-26 23:08 | 41.11910 | 47.96301 | 35973 ft | 429 kts | 262° |
| 2026-04-26 23:09 | 41.12244 | 47.88397 | 35991 ft | 433 kts | 279° |
| 2026-04-26 23:09 | 41.13548 | 47.80668 | 35968 ft | 430 kts | 279° |
| 2026-04-26 23:10 | 41.14823 | 47.72920 | 35980 ft | 430 kts | 279° |
| 2026-04-26 23:10 | 41.16067 | 47.65074 | 35980 ft | 432 kts | 278° |
| 2026-04-26 23:11 | 41.17274 | 47.57310 | 35991 ft | 433 kts | 278° |
| 2026-04-26 23:11 | 41.18484 | 47.49466 | 36013 ft | 433 kts | 278° |
| 2026-04-26 23:12 | 41.19691 | 47.41610 | 36002 ft | 433 kts | 278° |
| 2026-04-26 23:12 | 41.20889 | 47.33779 | 36011 ft | 432 kts | 278° |
| 2026-04-26 23:13 | 41.22082 | 47.25964 | 36037 ft | 433 kts | 278° |
| 2026-04-26 23:13 | 41.23274 | 47.18080 | 36037 ft | 436 kts | 278° |
| 2026-04-26 23:14 | 41.24462 | 47.10206 | 36050 ft | 433 kts | 278° |
| 2026-04-26 23:14 | 41.25639 | 47.02368 | 36056 ft | 432 kts | 278° |
| 2026-04-26 23:15 | 41.26813 | 46.94500 | 36047 ft | 434 kts | 278° |
| 2026-04-26 23:15 | 41.27794 | 46.87900 | 36040 ft | 435 kts | 278° |
| 2026-04-26 23:16 | 41.28960 | 46.80025 | 36044 ft | 435 kts | 278° |
| 2026-04-26 23:16 | 41.30115 | 46.72143 | 36053 ft | 435 kts | 277° |
| 2026-04-26 23:17 | 41.31226 | 46.64220 | 36052 ft | 435 kts | 277° |
| 2026-04-26 23:17 | 41.32323 | 46.56296 | 36053 ft | 436 kts | 277° |
| 2026-04-26 23:18 | 41.33424 | 46.48337 | 36056 ft | 437 kts | 277° |
| 2026-04-26 23:18 | 41.34521 | 46.40384 | 36050 ft | 437 kts | 277° |
| 2026-04-26 23:19 | 41.35613 | 46.32437 | 36050 ft | 436 kts | 277° |
| 2026-04-26 23:19 | 41.36691 | 46.24537 | 36050 ft | 436 kts | 277° |
| 2026-04-26 23:20 | 41.37779 | 46.16531 | 36049 ft | 437 kts | 277° |
| 2026-04-26 23:20 | 41.38852 | 46.08586 | 36054 ft | 439 kts | 277° |
| 2026-04-26 23:21 | 41.39928 | 46.00574 | 36040 ft | 439 kts | 277° |
| 2026-04-26 23:21 | 41.41003 | 45.92535 | 36038 ft | 438 kts | 277° |
| 2026-04-26 23:22 | 41.42059 | 45.84590 | 36047 ft | 439 kts | 277° |
| 2026-04-26 23:22 | 41.43123 | 45.76535 | 36039 ft | 439 kts | 277° |
| 2026-04-26 23:23 | 41.44174 | 45.68536 | 36035 ft | 439 kts | 277° |
| 2026-04-26 23:23 | 41.45227 | 45.60483 | 36027 ft | 439 kts | 277° |
| 2026-04-26 23:24 | 41.46267 | 45.52477 | 36039 ft | 439 kts | 277° |
| 2026-04-26 23:24 | 41.47307 | 45.44438 | 36022 ft | 440 kts | 277° |
| 2026-04-26 23:25 | 41.48331 | 45.36378 | 36022 ft | 440 kts | 275° |
| 2026-04-26 23:25 | 41.49023 | 45.28271 | 36024 ft | 440 kts | 273° |
| 2026-04-26 23:26 | 41.49675 | 45.20137 | 36025 ft | 440 kts | 273° |
| 2026-04-26 23:26 | 41.50332 | 45.11995 | 36019 ft | 440 kts | 274° |
| 2026-04-26 23:27 | 41.50987 | 45.03876 | 36020 ft | 440 kts | 273° |
| 2026-04-26 23:27 | 41.51640 | 44.95741 | 36022 ft | 441 kts | 273° |
| 2026-04-26 23:28 | 41.52286 | 44.87596 | 35994 ft | 445 kts | 273° |
| 2026-04-26 23:28 | 41.52939 | 44.79263 | 36033 ft | 456 kts | 273° |
| 2026-04-26 23:29 | 41.53602 | 44.70758 | 36033 ft | 462 kts | 273° |
| 2026-04-26 23:29 | 41.54260 | 44.62275 | 36022 ft | 456 kts | 273° |
| 2026-04-26 23:30 | 41.54898 | 44.53925 | 36037 ft | 454 kts | 273° |
| 2026-04-26 23:30 | 41.55533 | 44.45522 | 36039 ft | 456 kts | 273° |
| 2026-04-26 23:31 | 41.56166 | 44.37072 | 36035 ft | 457 kts | 273° |
| 2026-04-26 23:31 | 41.56797 | 44.28591 | 36026 ft | 456 kts | 273° |
| 2026-04-26 23:32 | 41.57267 | 44.20146 | 36020 ft | 454 kts | 268° |
| 2026-04-26 23:32 | 41.57252 | 44.11717 | 36021 ft | 454 kts | 268° |
| 2026-04-26 23:33 | 41.57256 | 44.03305 | 36011 ft | 454 kts | 268° |
| 2026-04-26 23:33 | 41.57267 | 43.94821 | 36010 ft | 454 kts | 268° |
| 2026-04-26 23:34 | 41.57276 | 43.86384 | 36009 ft | 454 kts | 268° |
| 2026-04-26 23:34 | 41.57279 | 43.77999 | 36015 ft | 453 kts | 268° |
| 2026-04-26 23:35 | 41.57275 | 43.69578 | 36017 ft | 453 kts | 268° |
| 2026-04-26 23:35 | 41.57265 | 43.61172 | 36023 ft | 453 kts | 268° |
| 2026-04-26 23:36 | 41.57249 | 43.52739 | 36019 ft | 452 kts | 268° |
| 2026-04-26 23:36 | 41.57226 | 43.44347 | 36018 ft | 451 kts | 268° |
| 2026-04-26 23:37 | 41.57198 | 43.36017 | 36020 ft | 451 kts | 268° |
| 2026-04-26 23:37 | 41.57163 | 43.27592 | 36025 ft | 451 kts | 268° |
| 2026-04-26 23:38 | 41.57121 | 43.19266 | 36012 ft | 450 kts | 268° |
| 2026-04-26 23:38 | 41.57075 | 43.10888 | 36021 ft | 450 kts | 268° |
| 2026-04-26 23:39 | 41.57024 | 43.02531 | 36007 ft | 450 kts | 268° |
| 2026-04-26 23:39 | 41.56965 | 42.94188 | 36025 ft | 450 kts | 268° |
| 2026-04-26 23:40 | 41.56900 | 42.85817 | 36020 ft | 450 kts | 268° |
| 2026-04-26 23:40 | 41.56828 | 42.77398 | 36016 ft | 450 kts | 268° |
| 2026-04-26 23:41 | 41.56752 | 42.69105 | 36018 ft | 450 kts | 268° |
| 2026-04-26 23:41 | 41.56669 | 42.60733 | 36017 ft | 449 kts | 268° |
| 2026-04-26 23:42 | 41.56580 | 42.52390 | 36021 ft | 450 kts | 268° |
| 2026-04-26 23:42 | 41.56435 | 42.39825 | 36010 ft | 450 kts | 268° |
| 2026-04-26 23:43 | 41.56332 | 42.31487 | 36004 ft | 449 kts | 268° |
| 2026-04-26 23:43 | 41.56222 | 42.23201 | 36001 ft | 449 kts | 268° |
| 2026-04-26 23:44 | 41.56106 | 42.14846 | 36001 ft | 450 kts | 268° |
| 2026-04-26 23:44 | 41.55983 | 42.06462 | 36005 ft | 450 kts | 268° |
| 2026-04-26 23:45 | 41.55877 | 41.99468 | 36005 ft | 450 kts | 268° |
| 2026-04-26 23:45 | 41.55721 | 41.89739 | 36000 ft | 450 kts | 268° |
| 2026-04-26 23:46 | 41.55580 | 41.81372 | 35987 ft | 451 kts | 268° |
| 2026-04-26 23:46 | 41.55434 | 41.73000 | 36001 ft | 451 kts | 268° |
| 2026-04-26 23:47 | 41.55306 | 41.65986 | 36001 ft | 451 kts | 268° |
| 2026-04-26 23:47 | 41.55123 | 41.56255 | 35997 ft | 451 kts | 268° |
| 2026-04-26 23:48 | 41.54986 | 41.49227 | 35989 ft | 451 kts | 268° |
| 2026-04-26 23:48 | 41.55042 | 41.40929 | 35976 ft | 452 kts | 274° |
| 2026-04-26 23:49 | 41.55575 | 41.32487 | 35983 ft | 453 kts | 274° |
| 2026-04-26 23:49 | 41.56094 | 41.24156 | 35971 ft | 453 kts | 274° |
| 2026-04-26 23:50 | 41.56581 | 41.15745 | 35970 ft | 453 kts | 274° |
| 2026-04-26 23:50 | 41.57051 | 41.07313 | 35984 ft | 453 kts | 274° |
| 2026-04-26 23:51 | 41.57509 | 40.98967 | 35988 ft | 453 kts | 274° |
| 2026-04-26 23:51 | 41.57968 | 40.90519 | 35997 ft | 453 kts | 273° |
| 2026-04-26 23:52 | 41.58418 | 40.82121 | 35983 ft | 453 kts | 274° |
| 2026-04-26 23:52 | 41.58860 | 40.73773 | 35987 ft | 453 kts | 273° |
| 2026-04-26 23:53 | 41.59299 | 40.65373 | 36000 ft | 453 kts | 273° |
| 2026-04-26 23:53 | 41.59729 | 40.56958 | 35997 ft | 454 kts | 273° |
| 2026-04-26 23:54 | 41.60151 | 40.48543 | 35996 ft | 454 kts | 273° |
| 2026-04-26 23:54 | 41.60568 | 40.40118 | 35998 ft | 454 kts | 273° |
| 2026-04-26 23:55 | 41.60978 | 40.31710 | 36001 ft | 454 kts | 273° |
| 2026-04-26 23:55 | 41.61382 | 40.23301 | 36004 ft | 454 kts | 273° |
| 2026-04-26 23:56 | 41.61781 | 40.14874 | 36005 ft | 454 kts | 273° |
| 2026-04-26 23:56 | 41.62174 | 40.06441 | 36005 ft | 454 kts | 273° |
| 2026-04-26 23:57 | 41.62561 | 39.98013 | 36004 ft | 455 kts | 273° |
| 2026-04-26 23:57 | 41.62942 | 39.89561 | 35999 ft | 455 kts | 273° |
| 2026-04-26 23:58 | 41.63319 | 39.81089 | 36002 ft | 455 kts | 273° |
| 2026-04-26 23:58 | 41.63687 | 39.72647 | 35997 ft | 455 kts | 273° |
| 2026-04-26 23:59 | 41.64051 | 39.64187 | 35999 ft | 456 kts | 273° |
| 2026-04-26 23:59 | 41.64409 | 39.55735 | 36009 ft | 456 kts | 273° |
| 2026-04-27 00:00 | 41.64764 | 39.47263 | 35995 ft | 456 kts | 273° |
| 2026-04-27 00:00 | 41.65116 | 39.38767 | 35998 ft | 457 kts | 273° |
| 2026-04-27 00:01 | 41.65461 | 39.30290 | 36006 ft | 457 kts | 273° |
| 2026-04-27 00:01 | 41.65800 | 39.21791 | 35994 ft | 457 kts | 273° |
| 2026-04-27 00:02 | 41.66133 | 39.13294 | 35999 ft | 456 kts | 273° |
| 2026-04-27 00:02 | 41.66459 | 39.04827 | 36008 ft | 456 kts | 273° |
| 2026-04-27 00:03 | 41.66779 | 38.96341 | 36011 ft | 456 kts | 273° |
| 2026-04-27 00:03 | 41.67091 | 38.87875 | 36008 ft | 457 kts | 273° |
| 2026-04-27 00:04 | 41.67400 | 38.79367 | 36011 ft | 457 kts | 273° |
| 2026-04-27 00:04 | 41.67700 | 38.70891 | 36010 ft | 457 kts | 273° |
| 2026-04-27 00:05 | 41.67995 | 38.62411 | 36013 ft | 456 kts | 273° |
| 2026-04-27 00:05 | 41.68283 | 38.53936 | 36018 ft | 456 kts | 273° |
| 2026-04-27 00:06 | 41.68568 | 38.45377 | 36368 ft | 457 kts | 273° |
| 2026-04-27 00:06 | 41.68705 | 38.41187 | 36692 ft | 455 kts | 273° |
| 2026-04-27 00:06 | 41.68843 | 38.36911 | 37037 ft | 453 kts | 273° |
| 2026-04-27 00:07 | 41.68975 | 38.32758 | 37446 ft | 448 kts | 273° |
| 2026-04-27 00:07 | 41.69106 | 38.28622 | 37849 ft | 445 kts | 273° |
| 2026-04-27 00:07 | 41.69235 | 38.24491 | 37953 ft | 448 kts | 273° |
| 2026-04-27 00:07 | 41.69365 | 38.20309 | 38007 ft | 450 kts | 273° |
| 2026-04-27 00:08 | 41.69620 | 38.11903 | 38016 ft | 453 kts | 273° |
| 2026-04-27 00:08 | 41.69868 | 38.03515 | 38007 ft | 449 kts | 272° |
| 2026-04-27 00:09 | 41.70109 | 37.95180 | 38014 ft | 447 kts | 272° |
| 2026-04-27 00:09 | 41.70344 | 37.86846 | 38025 ft | 448 kts | 272° |
| 2026-04-27 00:10 | 41.70575 | 37.78475 | 38022 ft | 449 kts | 272° |
| 2026-04-27 00:10 | 41.70887 | 37.70172 | 38016 ft | 449 kts | 278° |
| 2026-04-27 00:11 | 41.72279 | 37.62018 | 38032 ft | 448 kts | 288° |
| 2026-04-27 00:11 | 41.74630 | 37.54301 | 38033 ft | 449 kts | 293° |
| 2026-04-27 00:12 | 41.77123 | 37.46604 | 38022 ft | 449 kts | 292° |
| 2026-04-27 00:12 | 41.79581 | 37.38898 | 38021 ft | 449 kts | 292° |
| 2026-04-27 00:13 | 41.82020 | 37.31185 | 38027 ft | 448 kts | 292° |
| 2026-04-27 00:13 | 41.84452 | 37.23469 | 38024 ft | 447 kts | 292° |
| 2026-04-27 00:14 | 41.86865 | 37.15794 | 38025 ft | 447 kts | 292° |
| 2026-04-27 00:14 | 41.89174 | 37.08116 | 38022 ft | 446 kts | 287° |
| 2026-04-27 00:15 | 41.90479 | 36.99940 | 38030 ft | 446 kts | 277° |
| 2026-04-27 00:15 | 41.90810 | 36.91626 | 38032 ft | 447 kts | 272° |
| 2026-04-27 00:16 | 41.91000 | 36.83257 | 38021 ft | 448 kts | 272° |
| 2026-04-27 00:16 | 41.91201 | 36.74956 | 38029 ft | 447 kts | 273° |
| 2026-04-27 00:17 | 41.91410 | 36.66605 | 38025 ft | 448 kts | 272° |
| 2026-04-27 00:17 | 41.91619 | 36.58243 | 38029 ft | 448 kts | 272° |
| 2026-04-27 00:18 | 41.91823 | 36.49855 | 38029 ft | 449 kts | 272° |
| 2026-04-27 00:18 | 41.92020 | 36.41483 | 38026 ft | 450 kts | 272° |
| 2026-04-27 00:19 | 41.92210 | 36.33148 | 38029 ft | 450 kts | 272° |
| 2026-04-27 00:19 | 41.92394 | 36.24806 | 38030 ft | 450 kts | 272° |
| 2026-04-27 00:20 | 41.92573 | 36.16405 | 38031 ft | 450 kts | 272° |
| 2026-04-27 00:20 | 41.92718 | 36.09359 | 38033 ft | 450 kts | 272° |
| 2026-04-27 00:21 | 41.92885 | 36.01002 | 38036 ft | 450 kts | 272° |
| 2026-04-27 00:21 | 41.93048 | 35.92546 | 38035 ft | 450 kts | 272° |
| 2026-04-27 00:22 | 41.93204 | 35.84109 | 38035 ft | 451 kts | 272° |
| 2026-04-27 00:22 | 41.93353 | 35.75689 | 38044 ft | 451 kts | 272° |
| 2026-04-27 00:23 | 41.93497 | 35.67281 | 38039 ft | 450 kts | 272° |
| 2026-04-27 00:23 | 41.93633 | 35.58914 | 38047 ft | 450 kts | 272° |
| 2026-04-27 00:24 | 41.93765 | 35.50449 | 38047 ft | 450 kts | 272° |
| 2026-04-27 00:24 | 41.93889 | 35.42092 | 38051 ft | 450 kts | 272° |
| 2026-04-27 00:25 | 41.94008 | 35.33675 | 38055 ft | 450 kts | 272° |
| 2026-04-27 00:25 | 41.94121 | 35.25289 | 38061 ft | 450 kts | 272° |
| 2026-04-27 00:26 | 41.94227 | 35.16892 | 38062 ft | 450 kts | 272° |
| 2026-04-27 00:26 | 41.94327 | 35.08477 | 38069 ft | 449 kts | 271° |
| 2026-04-27 00:27 | 41.94421 | 35.00125 | 38076 ft | 449 kts | 271° |
| 2026-04-27 00:27 | 41.94509 | 34.91739 | 38080 ft | 449 kts | 271° |
| 2026-04-27 00:28 | 41.94591 | 34.83354 | 38082 ft | 449 kts | 271° |
| 2026-04-27 00:28 | 41.94667 | 34.74912 | 38088 ft | 449 kts | 271° |
| 2026-04-27 00:29 | 41.94736 | 34.66582 | 38095 ft | 449 kts | 271° |
| 2026-04-27 00:29 | 41.94800 | 34.58189 | 38096 ft | 449 kts | 271° |
| 2026-04-27 00:30 | 41.94857 | 34.49801 | 38093 ft | 449 kts | 271° |
| 2026-04-27 00:30 | 41.94909 | 34.41384 | 38103 ft | 449 kts | 271° |
| 2026-04-27 00:31 | 41.94954 | 34.32973 | 38100 ft | 449 kts | 271° |
| 2026-04-27 00:31 | 41.94993 | 34.24626 | 38114 ft | 449 kts | 271° |
| 2026-04-27 00:32 | 41.95026 | 34.16247 | 38117 ft | 450 kts | 271° |
| 2026-04-27 00:32 | 41.95053 | 34.07840 | 38116 ft | 450 kts | 271° |
| 2026-04-27 00:33 | 41.95074 | 33.99380 | 38119 ft | 450 kts | 271° |
| 2026-04-27 00:33 | 41.95089 | 33.91030 | 38119 ft | 449 kts | 271° |
| 2026-04-27 00:34 | 41.95099 | 33.82638 | 38132 ft | 450 kts | 271° |
| 2026-04-27 00:34 | 41.95119 | 33.74191 | 38133 ft | 450 kts | 273° |
| 2026-04-27 00:35 | 41.95937 | 33.65881 | 38127 ft | 449 kts | 284° |
| 2026-04-27 00:35 | 41.97546 | 33.57821 | 38128 ft | 449 kts | 285° |
| 2026-04-27 00:36 | 41.99134 | 33.49696 | 38141 ft | 449 kts | 284° |
| 2026-04-27 00:36 | 42.00706 | 33.41512 | 38140 ft | 449 kts | 284° |
| 2026-04-27 00:37 | 42.02246 | 33.33441 | 38139 ft | 448 kts | 284° |
| 2026-04-27 00:37 | 42.03801 | 33.25260 | 38147 ft | 447 kts | 284° |
| 2026-04-27 00:38 | 42.05323 | 33.17227 | 38146 ft | 446 kts | 284° |
| 2026-04-27 00:38 | 42.06862 | 33.09075 | 38146 ft | 446 kts | 284° |
| 2026-04-27 00:39 | 42.08452 | 33.01046 | 38147 ft | 446 kts | 286° |
| 2026-04-27 00:39 | 42.10127 | 32.92999 | 38148 ft | 446 kts | 286° |
| 2026-04-27 00:40 | 42.11783 | 32.84965 | 38146 ft | 445 kts | 285° |
| 2026-04-27 00:40 | 42.13422 | 32.76915 | 38149 ft | 445 kts | 285° |
| 2026-04-27 00:41 | 42.15057 | 32.68848 | 38147 ft | 445 kts | 285° |
| 2026-04-27 00:41 | 42.16679 | 32.60814 | 38147 ft | 445 kts | 285° |
| 2026-04-27 00:42 | 42.18300 | 32.52736 | 38147 ft | 445 kts | 285° |
| 2026-04-27 00:42 | 42.19899 | 32.44731 | 38149 ft | 444 kts | 285° |
| 2026-04-27 00:43 | 42.21510 | 32.36630 | 38148 ft | 443 kts | 285° |
| 2026-04-27 00:43 | 42.23103 | 32.28591 | 38147 ft | 443 kts | 285° |
| 2026-04-27 00:44 | 42.24689 | 32.20563 | 38149 ft | 442 kts | 285° |
| 2026-04-27 00:44 | 42.26270 | 32.12553 | 38155 ft | 440 kts | 285° |
| 2026-04-27 00:45 | 42.27835 | 32.04572 | 38153 ft | 438 kts | 285° |
| 2026-04-27 00:45 | 42.29372 | 31.96673 | 38157 ft | 438 kts | 285° |
| 2026-04-27 00:46 | 42.30928 | 31.88646 | 38161 ft | 440 kts | 285° |
| 2026-04-27 00:46 | 42.32470 | 31.80663 | 38165 ft | 442 kts | 285° |
| 2026-04-27 00:47 | 42.34025 | 31.72581 | 38160 ft | 444 kts | 285° |
| 2026-04-27 00:47 | 42.35575 | 31.64494 | 38158 ft | 444 kts | 285° |
| 2026-04-27 00:48 | 42.37116 | 31.56416 | 38160 ft | 443 kts | 285° |
| 2026-04-27 00:48 | 42.38651 | 31.48342 | 38162 ft | 441 kts | 285° |
| 2026-04-27 00:49 | 42.40168 | 31.40323 | 38164 ft | 438 kts | 285° |
| 2026-04-27 00:49 | 42.41673 | 31.32334 | 38165 ft | 436 kts | 284° |
| 2026-04-27 00:50 | 42.43899 | 31.20465 | 38174 ft | 435 kts | 284° |
| 2026-04-27 00:51 | 42.45382 | 31.12514 | 38171 ft | 436 kts | 284° |
| 2026-04-27 00:51 | 42.46879 | 31.04473 | 38178 ft | 438 kts | 284° |
| 2026-04-27 00:52 | 42.48362 | 30.96482 | 38179 ft | 440 kts | 284° |
| 2026-04-27 00:52 | 42.49849 | 30.88436 | 38188 ft | 440 kts | 284° |
| 2026-04-27 00:53 | 42.51336 | 30.80355 | 38177 ft | 440 kts | 284° |
| 2026-04-27 00:53 | 42.52813 | 30.72293 | 38181 ft | 440 kts | 284° |
| 2026-04-27 00:54 | 42.54279 | 30.64256 | 38185 ft | 439 kts | 284° |
| 2026-04-27 00:54 | 42.55729 | 30.56272 | 38185 ft | 437 kts | 284° |
| 2026-04-27 00:55 | 42.57181 | 30.48246 | 38192 ft | 436 kts | 284° |
| 2026-04-27 00:55 | 42.58618 | 30.40266 | 38194 ft | 436 kts | 283° |
| 2026-04-27 00:56 | 42.59821 | 30.33567 | 38192 ft | 436 kts | 284° |
| 2026-04-27 00:56 | 42.61929 | 30.25900 | 38198 ft | 436 kts | 297° |
| 2026-04-27 00:57 | 42.65221 | 30.18956 | 38206 ft | 438 kts | 306° |
| 2026-04-27 00:57 | 42.68983 | 30.12415 | 38195 ft | 439 kts | 306° |
| 2026-04-27 00:58 | 42.72736 | 30.05856 | 38206 ft | 440 kts | 306° |
| 2026-04-27 00:58 | 42.76484 | 29.99249 | 38209 ft | 440 kts | 306° |
| 2026-04-27 00:59 | 42.80201 | 29.92660 | 38205 ft | 440 kts | 306° |
| 2026-04-27 00:59 | 42.83923 | 29.86041 | 38209 ft | 439 kts | 306° |
| 2026-04-27 01:00 | 42.87619 | 29.79453 | 38213 ft | 438 kts | 306° |
| 2026-04-27 01:00 | 42.91318 | 29.72846 | 38217 ft | 437 kts | 306° |
| 2026-04-27 01:01 | 42.94998 | 29.66259 | 38220 ft | 436 kts | 306° |
| 2026-04-27 01:01 | 42.98683 | 29.59646 | 38226 ft | 435 kts | 306° |
| 2026-04-27 01:02 | 43.02333 | 29.53084 | 38225 ft | 435 kts | 306° |
| 2026-04-27 01:02 | 43.05996 | 29.46484 | 38226 ft | 434 kts | 305° |
| 2026-04-27 01:03 | 43.09652 | 29.39881 | 38228 ft | 434 kts | 305° |
| 2026-04-27 01:03 | 43.13292 | 29.33292 | 38232 ft | 434 kts | 305° |
| 2026-04-27 01:04 | 43.16936 | 29.26681 | 38231 ft | 434 kts | 305° |
| 2026-04-27 01:04 | 43.20576 | 29.20063 | 38234 ft | 434 kts | 305° |
| 2026-04-27 01:05 | 43.24201 | 29.13458 | 38238 ft | 433 kts | 305° |
| 2026-04-27 01:05 | 43.27802 | 29.06881 | 38242 ft | 433 kts | 305° |
| 2026-04-27 01:06 | 43.31418 | 29.00262 | 38237 ft | 433 kts | 305° |
| 2026-04-27 01:06 | 43.35018 | 28.93657 | 38239 ft | 432 kts | 305° |
| 2026-04-27 01:07 | 43.38628 | 28.87021 | 38248 ft | 431 kts | 305° |
| 2026-04-27 01:07 | 43.42199 | 28.80439 | 38250 ft | 431 kts | 304° |
| 2026-04-27 01:08 | 43.45785 | 28.73818 | 38249 ft | 431 kts | 304° |
| 2026-04-27 01:08 | 43.49378 | 28.67166 | 38250 ft | 431 kts | 304° |
| 2026-04-27 01:09 | 43.52947 | 28.60543 | 38252 ft | 431 kts | 304° |
| 2026-04-27 01:09 | 43.56490 | 28.53956 | 38255 ft | 430 kts | 304° |
| 2026-04-27 01:10 | 43.60051 | 28.47319 | 38254 ft | 428 kts | 304° |
| 2026-04-27 01:10 | 43.63582 | 28.40724 | 38260 ft | 428 kts | 304° |
| 2026-04-27 01:11 | 43.67114 | 28.34112 | 38264 ft | 427 kts | 304° |
| 2026-04-27 01:11 | 43.70634 | 28.27509 | 38248 ft | 426 kts | 304° |
| 2026-04-27 01:12 | 43.74151 | 28.20895 | 38252 ft | 425 kts | 304° |
| 2026-04-27 01:12 | 43.77646 | 28.14308 | 38249 ft | 425 kts | 304° |
| 2026-04-27 01:13 | 43.81145 | 28.07697 | 38253 ft | 424 kts | 304° |
| 2026-04-27 01:13 | 43.84641 | 28.01078 | 38257 ft | 424 kts | 304° |
| 2026-04-27 01:14 | 43.88094 | 27.94525 | 38261 ft | 424 kts | 304° |
| 2026-04-27 01:14 | 43.91570 | 27.87915 | 38257 ft | 423 kts | 304° |
| 2026-04-27 01:15 | 43.95050 | 27.81282 | 38263 ft | 423 kts | 304° |
| 2026-04-27 01:15 | 43.98511 | 27.74668 | 38260 ft | 423 kts | 304° |
| 2026-04-27 01:16 | 44.01942 | 27.68100 | 38263 ft | 422 kts | 304° |
| 2026-04-27 01:16 | 44.05400 | 27.61462 | 38259 ft | 421 kts | 304° |
| 2026-04-27 01:17 | 44.08841 | 27.54844 | 38267 ft | 421 kts | 304° |
| 2026-04-27 01:17 | 44.12246 | 27.48278 | 38267 ft | 422 kts | 303° |
| 2026-04-27 01:18 | 44.15682 | 27.41638 | 38262 ft | 422 kts | 303° |
| 2026-04-27 01:18 | 44.19101 | 27.35018 | 38265 ft | 421 kts | 303° |
| 2026-04-27 01:19 | 44.22526 | 27.28369 | 38267 ft | 421 kts | 303° |
| 2026-04-27 01:19 | 44.25949 | 27.21710 | 38267 ft | 420 kts | 303° |
| 2026-04-27 01:20 | 44.29353 | 27.15071 | 38270 ft | 420 kts | 303° |
| 2026-04-27 01:20 | 44.32732 | 27.08466 | 38266 ft | 420 kts | 303° |
| 2026-04-27 01:21 | 44.36123 | 27.01824 | 38266 ft | 419 kts | 303° |
| 2026-04-27 01:21 | 44.39529 | 26.95135 | 38269 ft | 420 kts | 303° |
| 2026-04-27 01:22 | 44.42909 | 26.88482 | 38273 ft | 420 kts | 303° |
| 2026-04-27 01:22 | 44.46271 | 26.81851 | 38268 ft | 420 kts | 303° |
| 2026-04-27 01:23 | 44.49654 | 26.75163 | 38272 ft | 420 kts | 303° |
| 2026-04-27 01:23 | 44.53041 | 26.68449 | 38273 ft | 420 kts | 303° |
| 2026-04-27 01:24 | 44.56385 | 26.61806 | 38270 ft | 420 kts | 303° |
| 2026-04-27 01:24 | 44.59767 | 26.55082 | 38267 ft | 421 kts | 303° |
| 2026-04-27 01:25 | 44.63314 | 26.48565 | 38277 ft | 422 kts | 306° |
| 2026-04-27 01:25 | 44.66975 | 26.42084 | 38280 ft | 422 kts | 306° |
| 2026-04-27 01:26 | 44.70617 | 26.35576 | 38280 ft | 423 kts | 305° |
| 2026-04-27 01:26 | 44.74220 | 26.29071 | 38281 ft | 423 kts | 305° |
| 2026-04-27 01:27 | 44.77829 | 26.22519 | 38280 ft | 423 kts | 305° |
| 2026-04-27 01:27 | 44.81418 | 26.15983 | 38283 ft | 423 kts | 305° |
| 2026-04-27 01:28 | 44.85022 | 26.09408 | 38277 ft | 424 kts | 305° |
| 2026-04-27 01:28 | 44.88027 | 26.03912 | 38280 ft | 424 kts | 305° |
| 2026-04-27 01:29 | 44.91623 | 25.97324 | 38273 ft | 424 kts | 305° |
| 2026-04-27 01:29 | 44.95225 | 25.90709 | 38280 ft | 424 kts | 305° |
| 2026-04-27 01:30 | 44.98829 | 25.84075 | 38279 ft | 423 kts | 305° |
| 2026-04-27 01:30 | 45.02407 | 25.77474 | 38285 ft | 423 kts | 305° |
| 2026-04-27 01:31 | 45.05971 | 25.70884 | 38286 ft | 423 kts | 305° |
| 2026-04-27 01:31 | 45.09530 | 25.64287 | 38295 ft | 422 kts | 305° |
| 2026-04-27 01:32 | 45.13094 | 25.57666 | 38296 ft | 421 kts | 305° |
| 2026-04-27 01:32 | 45.16649 | 25.51046 | 38291 ft | 420 kts | 305° |
| 2026-04-27 01:33 | 45.20178 | 25.44458 | 38300 ft | 420 kts | 305° |
| 2026-04-27 01:33 | 45.23710 | 25.37852 | 38299 ft | 419 kts | 305° |
| 2026-04-27 01:34 | 45.27206 | 25.31295 | 38302 ft | 420 kts | 304° |
| 2026-04-27 01:34 | 45.30730 | 25.24672 | 38306 ft | 420 kts | 304° |
| 2026-04-27 01:35 | 45.34247 | 25.18047 | 38302 ft | 420 kts | 304° |
| 2026-04-27 01:35 | 45.37767 | 25.11400 | 38300 ft | 420 kts | 304° |
| 2026-04-27 01:36 | 45.41292 | 25.04728 | 38299 ft | 420 kts | 304° |
| 2026-04-27 01:36 | 45.44782 | 24.98107 | 38307 ft | 421 kts | 304° |
| 2026-04-27 01:37 | 45.48318 | 24.91380 | 38304 ft | 422 kts | 304° |
| 2026-04-27 01:37 | 45.51814 | 24.84718 | 38316 ft | 422 kts | 304° |
| 2026-04-27 01:38 | 45.55343 | 24.77976 | 38307 ft | 421 kts | 304° |
| 2026-04-27 01:38 | 45.58833 | 24.71292 | 38324 ft | 421 kts | 304° |
| 2026-04-27 01:39 | 45.62329 | 24.64582 | 38290 ft | 421 kts | 304° |
| 2026-04-27 01:39 | 45.65822 | 24.57858 | 38296 ft | 421 kts | 304° |
| 2026-04-27 01:40 | 45.69313 | 24.51125 | 38292 ft | 420 kts | 304° |
| 2026-04-27 01:40 | 45.72777 | 24.44426 | 38291 ft | 419 kts | 304° |
| 2026-04-27 01:41 | 45.76242 | 24.37714 | 38282 ft | 418 kts | 304° |
| 2026-04-27 01:41 | 45.79462 | 24.30862 | 38278 ft | 416 kts | 298° |
| 2026-04-27 01:42 | 45.82342 | 24.23626 | 38270 ft | 415 kts | 298° |
| 2026-04-27 01:42 | 45.85207 | 24.16490 | 38271 ft | 416 kts | 298° |
| 2026-04-27 01:43 | 45.88092 | 24.09307 | 38273 ft | 415 kts | 298° |
| 2026-04-27 01:43 | 45.90980 | 24.02101 | 38273 ft | 415 kts | 298° |
| 2026-04-27 01:44 | 45.93848 | 23.94923 | 38287 ft | 414 kts | 298° |
| 2026-04-27 01:44 | 45.96713 | 23.87736 | 38286 ft | 414 kts | 298° |
| 2026-04-27 01:45 | 45.99573 | 23.80541 | 38301 ft | 414 kts | 298° |
| 2026-04-27 01:45 | 46.02431 | 23.73332 | 38315 ft | 414 kts | 298° |
| 2026-04-27 01:46 | 46.05284 | 23.66117 | 38314 ft | 415 kts | 298° |
| 2026-04-27 01:46 | 46.08133 | 23.58892 | 38314 ft | 415 kts | 298° |
| 2026-04-27 01:47 | 46.10992 | 23.51626 | 38312 ft | 414 kts | 298° |
| 2026-04-27 01:47 | 46.13808 | 23.44447 | 38312 ft | 413 kts | 298° |
| 2026-04-27 01:48 | 46.16633 | 23.37227 | 38318 ft | 414 kts | 298° |
| 2026-04-27 01:48 | 46.19460 | 23.29982 | 38321 ft | 415 kts | 298° |
| 2026-04-27 01:49 | 46.22313 | 23.22651 | 38324 ft | 415 kts | 298° |
| 2026-04-27 01:49 | 46.25134 | 23.15387 | 38337 ft | 415 kts | 298° |
| 2026-04-27 01:50 | 46.27954 | 23.08102 | 38332 ft | 415 kts | 298° |
| 2026-04-27 01:50 | 46.30752 | 23.00854 | 38329 ft | 415 kts | 298° |
| 2026-04-27 01:51 | 46.33567 | 22.93545 | 38331 ft | 415 kts | 298° |
| 2026-04-27 01:51 | 46.36368 | 22.86252 | 38337 ft | 416 kts | 298° |
| 2026-04-27 01:52 | 46.39176 | 22.78921 | 38338 ft | 416 kts | 298° |
| 2026-04-27 01:52 | 46.41986 | 22.71564 | 38329 ft | 417 kts | 298° |
| 2026-04-27 01:53 | 46.44791 | 22.64202 | 38323 ft | 418 kts | 298° |
| 2026-04-27 01:53 | 46.47600 | 22.56808 | 38321 ft | 418 kts | 297° |
| 2026-04-27 01:54 | 46.50409 | 22.49394 | 38314 ft | 418 kts | 297° |
| 2026-04-27 01:54 | 46.53207 | 22.41989 | 38309 ft | 418 kts | 297° |
| 2026-04-27 01:55 | 46.56010 | 22.34551 | 38309 ft | 419 kts | 297° |
| 2026-04-27 01:55 | 46.58804 | 22.27115 | 38300 ft | 420 kts | 297° |
| 2026-04-27 01:56 | 46.63014 | 22.15873 | 38302 ft | 420 kts | 297° |
| 2026-04-27 01:56 | 46.65798 | 22.08412 | 38289 ft | 421 kts | 297° |
| 2026-04-27 01:57 | 46.68597 | 22.00890 | 38299 ft | 421 kts | 297° |
| 2026-04-27 01:57 | 46.71372 | 21.93411 | 38290 ft | 421 kts | 297° |
| 2026-04-27 01:58 | 46.74163 | 21.85869 | 38293 ft | 421 kts | 297° |
| 2026-04-27 01:58 | 46.76947 | 21.78324 | 38293 ft | 421 kts | 297° |
| 2026-04-27 01:59 | 46.79719 | 21.70796 | 38289 ft | 421 kts | 297° |
| 2026-04-27 01:59 | 46.82667 | 21.63424 | 38286 ft | 422 kts | 302° |
| 2026-04-27 02:00 | 46.85383 | 21.57490 | 38292 ft | 422 kts | 303° |
| 2026-04-27 02:00 | 46.88678 | 21.50319 | 38288 ft | 422 kts | 302° |
| 2026-04-27 02:01 | 46.91917 | 21.43194 | 38288 ft | 422 kts | 302° |
| 2026-04-27 02:01 | 46.95156 | 21.36013 | 38285 ft | 422 kts | 302° |
| 2026-04-27 02:02 | 46.98378 | 21.28837 | 38296 ft | 422 kts | 302° |
| 2026-04-27 02:02 | 47.01590 | 21.21667 | 38292 ft | 422 kts | 302° |
| 2026-04-27 02:03 | 47.04811 | 21.14457 | 38296 ft | 422 kts | 302° |
| 2026-04-27 02:03 | 47.08041 | 21.07208 | 38295 ft | 422 kts | 302° |
| 2026-04-27 02:04 | 47.11238 | 21.00015 | 38289 ft | 423 kts | 302° |
| 2026-04-27 02:04 | 47.14453 | 20.92764 | 38293 ft | 423 kts | 302° |
| 2026-04-27 02:05 | 47.17647 | 20.85539 | 38293 ft | 423 kts | 302° |
| 2026-04-27 02:05 | 47.20876 | 20.78217 | 38294 ft | 423 kts | 302° |
| 2026-04-27 02:06 | 47.24061 | 20.70977 | 38295 ft | 424 kts | 302° |
| 2026-04-27 02:06 | 47.27263 | 20.63676 | 38294 ft | 424 kts | 302° |
| 2026-04-27 02:07 | 47.30457 | 20.56374 | 38292 ft | 425 kts | 302° |
| 2026-04-27 02:07 | 47.33653 | 20.49050 | 38297 ft | 424 kts | 301° |
| 2026-04-27 02:08 | 47.36849 | 20.41707 | 38299 ft | 424 kts | 301° |
| 2026-04-27 02:08 | 47.40044 | 20.34343 | 38293 ft | 425 kts | 301° |
| 2026-04-27 02:09 | 47.43219 | 20.27007 | 38297 ft | 425 kts | 301° |
| 2026-04-27 02:09 | 47.46403 | 20.19630 | 38296 ft | 426 kts | 301° |
| 2026-04-27 02:10 | 47.49587 | 20.12237 | 38298 ft | 426 kts | 301° |
| 2026-04-27 02:10 | 47.52839 | 20.04868 | 38300 ft | 426 kts | 302° |
| 2026-04-27 02:11 | 47.56109 | 19.97567 | 38295 ft | 427 kts | 302° |
| 2026-04-27 02:11 | 47.59387 | 19.90219 | 38300 ft | 427 kts | 302° |
| 2026-04-27 02:12 | 47.62651 | 19.82862 | 38299 ft | 427 kts | 302° |
| 2026-04-27 02:12 | 47.65913 | 19.75478 | 38292 ft | 428 kts | 302° |
| 2026-04-27 02:13 | 47.69179 | 19.68064 | 38297 ft | 428 kts | 302° |
| 2026-04-27 02:13 | 47.72437 | 19.60646 | 38296 ft | 428 kts | 302° |
| 2026-04-27 02:14 | 47.75688 | 19.53227 | 38294 ft | 428 kts | 302° |
| 2026-04-27 02:14 | 47.78940 | 19.45782 | 38290 ft | 429 kts | 302° |
| 2026-04-27 02:15 | 47.82183 | 19.38340 | 38300 ft | 429 kts | 302° |
| 2026-04-27 02:15 | 47.85427 | 19.30876 | 38286 ft | 430 kts | 301° |
| 2026-04-27 02:16 | 47.88671 | 19.23389 | 38296 ft | 431 kts | 301° |
| 2026-04-27 02:16 | 47.91930 | 19.15846 | 38282 ft | 432 kts | 301° |
| 2026-04-27 02:17 | 47.95198 | 19.08264 | 38291 ft | 432 kts | 301° |
| 2026-04-27 02:17 | 47.98434 | 19.00736 | 38297 ft | 435 kts | 301° |
| 2026-04-27 02:18 | 48.01728 | 18.93049 | 38292 ft | 437 kts | 301° |
| 2026-04-27 02:18 | 48.04979 | 18.85441 | 38295 ft | 438 kts | 301° |
| 2026-04-27 02:19 | 48.08271 | 18.77717 | 38284 ft | 440 kts | 301° |
| 2026-04-27 02:19 | 48.11574 | 18.69943 | 38293 ft | 441 kts | 301° |
| 2026-04-27 02:20 | 48.14859 | 18.62190 | 38286 ft | 441 kts | 301° |
| 2026-04-27 02:20 | 48.18131 | 18.54447 | 38286 ft | 440 kts | 301° |
| 2026-04-27 02:21 | 48.21405 | 18.46676 | 38285 ft | 440 kts | 301° |
| 2026-04-27 02:21 | 48.24662 | 18.38922 | 38288 ft | 440 kts | 301° |
| 2026-04-27 02:22 | 48.27932 | 18.31114 | 38288 ft | 440 kts | 301° |
| 2026-04-27 02:22 | 48.31194 | 18.23304 | 38283 ft | 440 kts | 301° |
| 2026-04-27 02:23 | 48.34438 | 18.15514 | 38285 ft | 439 kts | 301° |
| 2026-04-27 02:23 | 48.37675 | 18.07721 | 38288 ft | 439 kts | 301° |
| 2026-04-27 02:24 | 48.40892 | 17.99950 | 38290 ft | 438 kts | 301° |
| 2026-04-27 02:24 | 48.44138 | 17.92088 | 38292 ft | 438 kts | 301° |
| 2026-04-27 02:25 | 48.47353 | 17.84278 | 38294 ft | 438 kts | 302° |
| 2026-04-27 02:25 | 48.50538 | 17.76517 | 38290 ft | 437 kts | 302° |
| 2026-04-27 02:26 | 48.53731 | 17.68715 | 38292 ft | 437 kts | 301° |
| 2026-04-27 02:26 | 48.56923 | 17.60893 | 38292 ft | 436 kts | 301° |
| 2026-04-27 02:27 | 48.59586 | 17.54350 | 38293 ft | 436 kts | 301° |
| 2026-04-27 02:27 | 48.62762 | 17.46524 | 38291 ft | 436 kts | 301° |
| 2026-04-27 02:28 | 48.65907 | 17.38751 | 38285 ft | 436 kts | 301° |
| 2026-04-27 02:28 | 48.69071 | 17.30910 | 38281 ft | 436 kts | 301° |
| 2026-04-27 02:29 | 48.72235 | 17.23044 | 38280 ft | 436 kts | 301° |
| 2026-04-27 02:29 | 48.75390 | 17.15181 | 38279 ft | 436 kts | 301° |
| 2026-04-27 02:30 | 48.78538 | 17.07309 | 38277 ft | 436 kts | 301° |
| 2026-04-27 02:30 | 48.81472 | 16.99267 | 38284 ft | 436 kts | 298° |
| 2026-04-27 02:31 | 48.84294 | 16.91093 | 38280 ft | 436 kts | 298° |
| 2026-04-27 02:31 | 48.87125 | 16.82941 | 38284 ft | 436 kts | 298° |
| 2026-04-27 02:32 | 48.89979 | 16.74787 | 38288 ft | 437 kts | 298° |
| 2026-04-27 02:32 | 48.92831 | 16.66637 | 38286 ft | 437 kts | 298° |
| 2026-04-27 02:33 | 48.95668 | 16.58508 | 38289 ft | 437 kts | 298° |
| 2026-04-27 02:33 | 48.98512 | 16.50330 | 38288 ft | 437 kts | 298° |
| 2026-04-27 02:34 | 49.01360 | 16.42111 | 38290 ft | 437 kts | 298° |
| 2026-04-27 02:34 | 49.04188 | 16.33925 | 38275 ft | 437 kts | 298° |
| 2026-04-27 02:35 | 49.07041 | 16.25640 | 38268 ft | 437 kts | 298° |
| 2026-04-27 02:35 | 49.09854 | 16.17443 | 38271 ft | 437 kts | 298° |
| 2026-04-27 02:36 | 49.12667 | 16.09226 | 38264 ft | 437 kts | 298° |
| 2026-04-27 02:36 | 49.15486 | 16.01012 | 38266 ft | 437 kts | 300° |
| 2026-04-27 02:37 | 49.18585 | 15.92997 | 38271 ft | 436 kts | 302° |
| 2026-04-27 02:37 | 49.21711 | 15.85079 | 38272 ft | 436 kts | 302° |
| 2026-04-27 02:38 | 49.24842 | 15.77093 | 38275 ft | 436 kts | 302° |
| 2026-04-27 02:38 | 49.27954 | 15.69100 | 38288 ft | 436 kts | 302° |
| 2026-04-27 02:39 | 49.31055 | 15.61097 | 38286 ft | 437 kts | 302° |
| 2026-04-27 02:39 | 49.34160 | 15.53057 | 38286 ft | 437 kts | 302° |
| 2026-04-27 02:40 | 49.37248 | 15.45036 | 38279 ft | 437 kts | 302° |
| 2026-04-27 02:40 | 49.40336 | 15.36994 | 38286 ft | 437 kts | 302° |
| 2026-04-27 02:41 | 49.43448 | 15.28863 | 38286 ft | 438 kts | 302° |
| 2026-04-27 02:41 | 49.46525 | 15.20797 | 38282 ft | 438 kts | 302° |
| 2026-04-27 02:42 | 49.49613 | 15.12678 | 38282 ft | 438 kts | 302° |
| 2026-04-27 02:42 | 49.52685 | 15.04577 | 38273 ft | 438 kts | 302° |
| 2026-04-27 02:43 | 49.55762 | 14.96439 | 38287 ft | 438 kts | 302° |
| 2026-04-27 02:43 | 49.58828 | 14.88303 | 38280 ft | 438 kts | 302° |
| 2026-04-27 02:44 | 49.61885 | 14.80164 | 38265 ft | 438 kts | 302° |
| 2026-04-27 02:44 | 49.64930 | 14.72033 | 38273 ft | 438 kts | 301° |
| 2026-04-27 02:45 | 49.67976 | 14.63874 | 38276 ft | 438 kts | 301° |
| 2026-04-27 02:45 | 49.70986 | 14.55787 | 38272 ft | 438 kts | 301° |
| 2026-04-27 02:46 | 49.74074 | 14.47463 | 38270 ft | 439 kts | 301° |
| 2026-04-27 02:46 | 49.77102 | 14.39274 | 38265 ft | 439 kts | 301° |
| 2026-04-27 02:47 | 49.80159 | 14.30980 | 38268 ft | 440 kts | 301° |
| 2026-04-27 02:47 | 49.83173 | 14.22777 | 38264 ft | 440 kts | 301° |
| 2026-04-27 02:48 | 49.86203 | 14.14505 | 38269 ft | 440 kts | 301° |
| 2026-04-27 02:48 | 49.89236 | 14.06201 | 38262 ft | 441 kts | 301° |
| 2026-04-27 02:49 | 49.92225 | 13.97956 | 38270 ft | 442 kts | 301° |
| 2026-04-27 02:49 | 49.95213 | 13.89598 | 38272 ft | 442 kts | 301° |
| 2026-04-27 02:50 | 49.97694 | 13.82629 | 38266 ft | 443 kts | 300° |
| 2026-04-27 02:50 | 50.00711 | 13.74140 | 38258 ft | 443 kts | 300° |
| 2026-04-27 02:51 | 50.03692 | 13.65734 | 38267 ft | 443 kts | 300° |
| 2026-04-27 02:51 | 50.06666 | 13.57318 | 38272 ft | 444 kts | 300° |
| 2026-04-27 02:52 | 50.09629 | 13.48906 | 38274 ft | 444 kts | 300° |
| 2026-04-27 02:52 | 50.12600 | 13.40446 | 38261 ft | 445 kts | 300° |
| 2026-04-27 02:53 | 50.15576 | 13.31940 | 38265 ft | 445 kts | 300° |
| 2026-04-27 02:53 | 50.18533 | 13.23464 | 38263 ft | 444 kts | 300° |
| 2026-04-27 02:54 | 50.21476 | 13.14996 | 38264 ft | 444 kts | 300° |
| 2026-04-27 02:54 | 50.24442 | 13.06435 | 38269 ft | 445 kts | 300° |
| 2026-04-27 02:55 | 50.27382 | 12.97922 | 38262 ft | 445 kts | 300° |
| 2026-04-27 02:55 | 50.30309 | 12.89415 | 38265 ft | 444 kts | 300° |
| 2026-04-27 02:56 | 50.33224 | 12.80916 | 38265 ft | 443 kts | 300° |
| 2026-04-27 02:56 | 50.36128 | 12.72424 | 38273 ft | 443 kts | 300° |
| 2026-04-27 02:57 | 50.39038 | 12.63895 | 38270 ft | 442 kts | 300° |
| 2026-04-27 02:57 | 50.42194 | 12.55637 | 38296 ft | 441 kts | 303° |
| 2026-04-27 02:58 | 50.45428 | 12.47445 | 38281 ft | 441 kts | 303° |
| 2026-04-27 02:58 | 50.48637 | 12.39266 | 38282 ft | 440 kts | 303° |
| 2026-04-27 02:59 | 50.51843 | 12.31035 | 38277 ft | 440 kts | 302° |
| 2026-04-27 02:59 | 50.55026 | 12.22822 | 38281 ft | 440 kts | 302° |
| 2026-04-27 03:00 | 50.58216 | 12.14562 | 38278 ft | 441 kts | 302° |
| 2026-04-27 03:00 | 50.61422 | 12.06231 | 38267 ft | 441 kts | 302° |
| 2026-04-27 03:01 | 50.64588 | 11.97983 | 38273 ft | 441 kts | 302° |
| 2026-04-27 03:01 | 50.67761 | 11.89690 | 38290 ft | 440 kts | 302° |
| 2026-04-27 03:02 | 50.70924 | 11.81395 | 38295 ft | 440 kts | 302° |
| 2026-04-27 03:02 | 50.74074 | 11.73106 | 38304 ft | 440 kts | 302° |
| 2026-04-27 03:03 | 50.78811 | 11.60594 | 38300 ft | 441 kts | 302° |
| 2026-04-27 03:04 | 50.81944 | 11.52287 | 38281 ft | 441 kts | 302° |
| 2026-04-27 03:04 | 50.85082 | 11.43936 | 38296 ft | 440 kts | 302° |
| 2026-04-27 03:05 | 50.88214 | 11.35575 | 38287 ft | 440 kts | 302° |
| 2026-04-27 03:05 | 50.91358 | 11.27155 | 38281 ft | 440 kts | 301° |
| 2026-04-27 03:06 | 50.94465 | 11.18808 | 38267 ft | 439 kts | 301° |
| 2026-04-27 03:06 | 50.97561 | 11.10462 | 38269 ft | 439 kts | 301° |
| 2026-04-27 03:07 | 51.00658 | 11.02087 | 38262 ft | 439 kts | 301° |
| 2026-04-27 03:07 | 51.03749 | 10.93701 | 38268 ft | 438 kts | 301° |
| 2026-04-27 03:08 | 51.06821 | 10.85337 | 38260 ft | 438 kts | 301° |
| 2026-04-27 03:08 | 51.09896 | 10.76940 | 38277 ft | 438 kts | 301° |
| 2026-04-27 03:09 | 51.12954 | 10.68561 | 38283 ft | 438 kts | 301° |
| 2026-04-27 03:09 | 51.16012 | 10.60155 | 38286 ft | 438 kts | 301° |
| 2026-04-27 03:10 | 51.19057 | 10.51755 | 38291 ft | 438 kts | 301° |
| 2026-04-27 03:10 | 51.21612 | 10.44686 | 38290 ft | 438 kts | 301° |
| 2026-04-27 03:11 | 51.24650 | 10.36260 | 38299 ft | 438 kts | 301° |
| 2026-04-27 03:11 | 51.27069 | 10.29228 | 38289 ft | 438 kts | 298° |
| 2026-04-27 03:12 | 51.29828 | 10.20543 | 38290 ft | 438 kts | 297° |
| 2026-04-27 03:12 | 51.32590 | 10.11790 | 38292 ft | 438 kts | 298° |
| 2026-04-27 03:13 | 51.35349 | 10.03108 | 38291 ft | 437 kts | 298° |
| 2026-04-27 03:13 | 51.38104 | 9.94457 | 38294 ft | 437 kts | 298° |
| 2026-04-27 03:14 | 51.40863 | 9.85773 | 38285 ft | 437 kts | 297° |
| 2026-04-27 03:14 | 51.43622 | 9.77057 | 38279 ft | 437 kts | 297° |
| 2026-04-27 03:15 | 51.46357 | 9.68383 | 38281 ft | 437 kts | 297° |
| 2026-04-27 03:15 | 51.49096 | 9.59666 | 38272 ft | 436 kts | 297° |
| 2026-04-27 03:16 | 51.51826 | 9.50943 | 38272 ft | 436 kts | 297° |
| 2026-04-27 03:16 | 51.54556 | 9.42192 | 38268 ft | 436 kts | 297° |
| 2026-04-27 03:17 | 51.57270 | 9.33463 | 38269 ft | 436 kts | 297° |
| 2026-04-27 03:17 | 51.59978 | 9.24719 | 38274 ft | 435 kts | 297° |
| 2026-04-27 03:18 | 51.62650 | 9.16061 | 38273 ft | 435 kts | 297° |
| 2026-04-27 03:18 | 51.65339 | 9.07316 | 38276 ft | 435 kts | 297° |
| 2026-04-27 03:19 | 51.68018 | 8.98570 | 38275 ft | 435 kts | 297° |
| 2026-04-27 03:19 | 51.70694 | 8.89806 | 38276 ft | 435 kts | 296° |
| 2026-04-27 03:20 | 51.73347 | 8.81088 | 38275 ft | 435 kts | 296° |
| 2026-04-27 03:20 | 51.75923 | 8.72247 | 38267 ft | 435 kts | 294° |
| 2026-04-27 03:21 | 51.78343 | 8.63209 | 38271 ft | 434 kts | 294° |
| 2026-04-27 03:21 | 51.80732 | 8.54234 | 38270 ft | 434 kts | 294° |
| 2026-04-27 03:22 | 51.83138 | 8.45256 | 38282 ft | 434 kts | 294° |
| 2026-04-27 03:22 | 51.85558 | 8.36234 | 38281 ft | 435 kts | 294° |
| 2026-04-27 03:23 | 51.87992 | 8.27139 | 38279 ft | 435 kts | 294° |
| 2026-04-27 03:23 | 51.90398 | 8.18108 | 38277 ft | 434 kts | 294° |
| 2026-04-27 03:24 | 51.92800 | 8.09057 | 38284 ft | 434 kts | 293° |
| 2026-04-27 03:24 | 51.95222 | 7.99892 | 38292 ft | 435 kts | 293° |
| 2026-04-27 03:25 | 51.97584 | 7.90919 | 38291 ft | 435 kts | 293° |
| 2026-04-27 03:25 | 51.99967 | 7.81832 | 38291 ft | 435 kts | 293° |
| 2026-04-27 03:26 | 52.02328 | 7.72789 | 38291 ft | 435 kts | 293° |
| 2026-04-27 03:26 | 52.04676 | 7.63763 | 38292 ft | 435 kts | 292° |
| 2026-04-27 03:27 | 52.07033 | 7.54663 | 37903 ft | 441 kts | 292° |
| 2026-04-27 03:27 | 52.07843 | 7.51531 | 37388 ft | 448 kts | 292° |
| 2026-04-27 03:27 | 52.09035 | 7.46909 | 36784 ft | 449 kts | 292° |
| 2026-04-27 03:27 | 52.10236 | 7.42240 | 36123 ft | 446 kts | 292° |
| 2026-04-27 03:28 | 52.11440 | 7.37555 | 35164 ft | 448 kts | 292° |
| 2026-04-27 03:28 | 52.12644 | 7.32857 | 34309 ft | 448 kts | 293° |
| 2026-04-27 03:28 | 52.13844 | 7.28165 | 33322 ft | 448 kts | 292° |
| 2026-04-27 03:28 | 52.15052 | 7.23431 | 32369 ft | 448 kts | 292° |
| 2026-04-27 03:29 | 52.16246 | 7.18744 | 31435 ft | 448 kts | 292° |
| 2026-04-27 03:29 | 52.17405 | 7.14184 | 30730 ft | 445 kts | 292° |
| 2026-04-27 03:29 | 52.18586 | 7.09532 | 29985 ft | 441 kts | 292° |
| 2026-04-27 03:29 | 52.19754 | 7.04920 | 29243 ft | 437 kts | 292° |
| 2026-04-27 03:30 | 52.20911 | 7.00342 | 28573 ft | 432 kts | 292° |
| 2026-04-27 03:30 | 52.22212 | 6.95971 | 27958 ft | 427 kts | 302° |
| 2026-04-27 03:30 | 52.24042 | 6.92218 | 27454 ft | 425 kts | 310° |
| 2026-04-27 03:30 | 52.26037 | 6.88592 | 26907 ft | 428 kts | 309° |
| 2026-04-27 03:31 | 52.27965 | 6.84879 | 26339 ft | 429 kts | 308° |
| 2026-04-27 03:31 | 52.29851 | 6.81113 | 25787 ft | 427 kts | 308° |
| 2026-04-27 03:31 | 52.31709 | 6.77359 | 25241 ft | 424 kts | 308° |
| 2026-04-27 03:31 | 52.33559 | 6.73623 | 24695 ft | 421 kts | 308° |
| 2026-04-27 03:32 | 52.35390 | 6.69929 | 24178 ft | 418 kts | 308° |
| 2026-04-27 03:32 | 52.37234 | 6.66215 | 23561 ft | 416 kts | 308° |
| 2026-04-27 03:32 | 52.39070 | 6.62512 | 22966 ft | 413 kts | 308° |
| 2026-04-27 03:32 | 52.40853 | 6.58908 | 22419 ft | 409 kts | 308° |
| 2026-04-27 03:33 | 52.42623 | 6.55329 | 21893 ft | 406 kts | 308° |
| 2026-04-27 03:33 | 52.44373 | 6.51782 | 21371 ft | 403 kts | 308° |
| 2026-04-27 03:33 | 52.46081 | 6.48051 | 20823 ft | 395 kts | 299° |
| 2026-04-27 03:33 | 52.47051 | 6.43860 | 20343 ft | 400 kts | 281° |
| 2026-04-27 03:34 | 52.47287 | 6.39401 | 19861 ft | 394 kts | 273° |
| 2026-04-27 03:34 | 52.47448 | 6.34833 | 19332 ft | 397 kts | 275° |
| 2026-04-27 03:34 | 52.47662 | 6.30411 | 18839 ft | 395 kts | 275° |
| 2026-04-27 03:34 | 52.47896 | 6.25867 | 18265 ft | 392 kts | 275° |
| 2026-04-27 03:35 | 52.48121 | 6.21442 | 17719 ft | 387 kts | 275° |
| 2026-04-27 03:35 | 52.48340 | 6.17038 | 17199 ft | 383 kts | 275° |
| 2026-04-27 03:35 | 52.48551 | 6.12740 | 16701 ft | 380 kts | 275° |
| 2026-04-27 03:35 | 52.48759 | 6.08422 | 16220 ft | 378 kts | 275° |
| 2026-04-27 03:36 | 52.48965 | 6.04109 | 15734 ft | 376 kts | 275° |
| 2026-04-27 03:36 | 52.49164 | 5.99905 | 15258 ft | 375 kts | 275° |
| 2026-04-27 03:36 | 52.49366 | 5.95623 | 14770 ft | 373 kts | 275° |
| 2026-04-27 03:36 | 52.49563 | 5.91388 | 14294 ft | 370 kts | 275° |
| 2026-04-27 03:37 | 52.49758 | 5.87192 | 13781 ft | 368 kts | 275° |
| 2026-04-27 03:37 | 52.49951 | 5.83000 | 13218 ft | 366 kts | 275° |
| 2026-04-27 03:37 | 52.50142 | 5.78824 | 12519 ft | 368 kts | 275° |
| 2026-04-27 03:37 | 52.50335 | 5.74581 | 12003 ft | 364 kts | 274° |
| 2026-04-27 03:38 | 52.50519 | 5.70509 | 11526 ft | 360 kts | 274° |
| 2026-04-27 03:38 | 52.50697 | 5.66545 | 11041 ft | 332 kts | 274° |
| 2026-04-27 03:38 | 52.50858 | 5.62909 | 10626 ft | 308 kts | 274° |
| 2026-04-27 03:38 | 52.51007 | 5.59499 | 10235 ft | 287 kts | 274° |
| 2026-04-27 03:39 | 52.50840 | 5.56376 | 9881 ft | 266 kts | 248° |
| 2026-04-27 03:39 | 52.49945 | 5.53899 | 9998 ft | 252 kts | 238° |
| 2026-04-27 03:39 | 52.48973 | 5.51323 | 10014 ft | 271 kts | 240° |
| 2026-04-27 03:39 | 52.48012 | 5.48635 | 10021 ft | 278 kts | 240° |
| 2026-04-27 03:40 | 52.47024 | 5.45882 | 10010 ft | 277 kts | 240° |
| 2026-04-27 03:40 | 52.46046 | 5.43182 | 9997 ft | 274 kts | 240° |
| 2026-04-27 03:40 | 52.45057 | 5.40472 | 9992 ft | 273 kts | 240° |
| 2026-04-27 03:40 | 52.44080 | 5.37809 | 9995 ft | 271 kts | 240° |
| 2026-04-27 03:41 | 52.43092 | 5.35127 | 9994 ft | 271 kts | 240° |
| 2026-04-27 03:41 | 52.42326 | 5.33050 | 9996 ft | 271 kts | 239° |
| 2026-04-27 03:41 | 52.41375 | 5.30476 | 9999 ft | 272 kts | 239° |
| 2026-04-27 03:41 | 52.40378 | 5.27784 | 10001 ft | 272 kts | 239° |
| 2026-04-27 03:42 | 52.39392 | 5.25122 | 10002 ft | 273 kts | 239° |
| 2026-04-27 03:42 | 52.38397 | 5.22442 | 9996 ft | 274 kts | 239° |
| 2026-04-27 03:42 | 52.37394 | 5.19739 | 9997 ft | 274 kts | 239° |
| 2026-04-27 03:42 | 52.36410 | 5.17093 | 9991 ft | 273 kts | 239° |
| 2026-04-27 03:43 | 52.35419 | 5.14434 | 9989 ft | 272 kts | 239° |
| 2026-04-27 03:43 | 52.34421 | 5.11760 | 9988 ft | 271 kts | 239° |
| 2026-04-27 03:43 | 52.33787 | 5.09992 | 9985 ft | 267 kts | 245° |
| 2026-04-27 03:43 | 52.33398 | 5.07068 | 10003 ft | 264 kts | 272° |
| 2026-04-27 03:44 | 52.33481 | 5.04035 | 10000 ft | 273 kts | 270° |
| 2026-04-27 03:44 | 52.33457 | 5.00868 | 10005 ft | 279 kts | 269° |
| 2026-04-27 03:44 | 52.33416 | 4.97721 | 10000 ft | 276 kts | 269° |
| 2026-04-27 03:44 | 52.33384 | 4.94541 | 9992 ft | 273 kts | 269° |
| 2026-04-27 03:45 | 52.33356 | 4.91469 | 9926 ft | 274 kts | 269° |
| 2026-04-27 03:45 | 52.33329 | 4.88289 | 9411 ft | 284 kts | 269° |
| 2026-04-27 03:45 | 52.33302 | 4.85042 | 9009 ft | 285 kts | 269° |
| 2026-04-27 03:45 | 52.33274 | 4.81761 | 8615 ft | 286 kts | 269° |
| 2026-04-27 03:46 | 52.33247 | 4.78494 | 8201 ft | 281 kts | 269° |
| 2026-04-27 03:46 | 52.33219 | 4.75365 | 7824 ft | 273 kts | 269° |
| 2026-04-27 03:46 | 52.33190 | 4.72220 | 7465 ft | 274 kts | 269° |
| 2026-04-27 03:46 | 52.33160 | 4.69136 | 7090 ft | 275 kts | 269° |
| 2026-04-27 03:47 | 52.33130 | 4.65985 | 6855 ft | 272 kts | 269° |
| 2026-04-27 03:47 | 52.33099 | 4.62943 | 6610 ft | 267 kts | 269° |
| 2026-04-27 03:47 | 52.33067 | 4.59913 | 6389 ft | 262 kts | 269° |
| 2026-04-27 03:47 | 52.33037 | 4.56980 | 6204 ft | 255 kts | 270° |
| 2026-04-27 03:48 | 52.33006 | 4.54098 | 6012 ft | 247 kts | 270° |
| 2026-04-27 03:48 | 52.32976 | 4.51308 | 5796 ft | 241 kts | 270° |
| 2026-04-27 03:48 | 52.32945 | 4.48594 | 5607 ft | 237 kts | 270° |
| 2026-04-27 03:48 | 52.32914 | 4.45891 | 5426 ft | 236 kts | 270° |
| 2026-04-27 03:49 | 52.32883 | 4.43218 | 5248 ft | 236 kts | 270° |
| 2026-04-27 03:49 | 52.32778 | 4.40548 | 5039 ft | 235 kts | 258° |
| 2026-04-27 03:49 | 52.31955 | 4.38294 | 4851 ft | 239 kts | 220° |
| 2026-04-27 03:49 | 52.30410 | 4.37264 | 4716 ft | 242 kts | 186° |
| 2026-04-27 03:50 | 52.28735 | 4.37106 | 4510 ft | 240 kts | 184° |
| 2026-04-27 03:50 | 52.27066 | 4.36889 | 4319 ft | 235 kts | 185° |
| 2026-04-27 03:50 | 52.25502 | 4.36681 | 4169 ft | 223 kts | 182° |
| 2026-04-27 03:50 | 52.24050 | 4.37114 | 3934 ft | 205 kts | 146° |
| 2026-04-27 03:51 | 52.23164 | 4.38745 | 3825 ft | 188 kts | 117° |
| 2026-04-27 03:51 | 52.23057 | 4.39060 | 3815 ft | 189 kts | 116° |
| 2026-04-27 03:51 | 52.22746 | 4.40039 | 3750 ft | 192 kts | 115° |
| 2026-04-27 03:51 | 52.22344 | 4.41363 | 3654 ft | 191 kts | 114° |
| 2026-04-27 03:52 | 52.21878 | 4.42937 | 3524 ft | 184 kts | 114° |
| 2026-04-27 03:52 | 52.21329 | 4.44812 | 3385 ft | 182 kts | 113° |
| 2026-04-27 03:52 | 52.20871 | 4.46525 | 3248 ft | 178 kts | 103° |
| 2026-04-27 03:52 | 52.20826 | 4.48521 | 3159 ft | 173 kts | 85° |
| 2026-04-27 03:53 | 52.20834 | 4.50524 | 3032 ft | 178 kts | 89° |
| 2026-04-27 03:53 | 52.20950 | 4.52536 | 2849 ft | 176 kts | 67° |
| 2026-04-27 03:53 | 52.21508 | 4.54254 | 2660 ft | 171 kts | 59° |
| 2026-04-27 03:53 | 52.22100 | 4.55989 | 2442 ft | 175 kts | 58° |
| 2026-04-27 03:54 | 52.22729 | 4.57680 | 2221 ft | 173 kts | 57° |
| 2026-04-27 03:54 | 52.23351 | 4.59305 | 2122 ft | 170 kts | 57° |
| 2026-04-27 03:54 | 52.23985 | 4.60947 | 1897 ft | 169 kts | 57° |
| 2026-04-27 03:54 | 52.24609 | 4.62565 | 1657 ft | 166 kts | 58° |
| 2026-04-27 03:55 | 52.25212 | 4.64126 | 1420 ft | 156 kts | 58° |
| 2026-04-27 03:55 | 52.25749 | 4.65520 | 1206 ft | 138 kts | 58° |
| 2026-04-27 03:55 | 52.26266 | 4.66864 | 1047 ft | 141 kts | 59° |
| 2026-04-27 03:55 | 52.26794 | 4.68234 | 823 ft | 141 kts | 59° |
| 2026-04-27 03:56 | 52.27314 | 4.69606 | 611 ft | 141 kts | 59° |
| 2026-04-27 03:56 | 52.27852 | 4.70968 | 368 ft | 140 kts | 58° |
| 2026-04-27 03:56 | 52.28376 | 4.72317 | 143 ft | 141 kts | 57° |
| 2026-04-27 03:56 | 52.28900 | 4.73691 | 29 ft | 140 kts | 57° |
| 2026-04-27 03:57 | 52.29249 | 4.74556 | 5 ft | 126 kts | 56° |
| 2026-04-27 03:57 | 52.29607 | 4.75533 | 3 ft | 72 kts | 57° |
| 2026-04-27 03:57 | 52.29800 | 4.76027 | 1 ft | 42 kts | 57° |
| 2026-04-27 03:57 | 52.29895 | 4.76281 | 1 ft | 24 kts | 59° |
| 2026-04-27 03:58 | 52.30000 | 4.76494 | 3 ft | 24 kts | 38° |
| 2026-04-27 03:58 | 52.30138 | 4.76631 | 4 ft | 24 kts | 28° |
| 2026-04-27 03:58 | 52.30290 | 4.76765 | 4 ft | 24 kts | 39° |
| 2026-04-27 03:58 | 52.30376 | 4.77002 | 4 ft | 24 kts | 56° |
| 2026-04-27 03:59 | 52.30471 | 4.77231 | 4 ft | 24 kts | 56° |
| 2026-04-27 03:59 | 52.30567 | 4.77460 | 4 ft | 20 kts | 49° |
| 2026-04-27 03:59 | 52.30626 | 4.77502 | 4 ft | 7 kts | 54° |
| 2026-04-27 03:59 | 52.30668 | 4.77564 | 4 ft | 12 kts | 22° |
| 2026-04-27 04:00 | 52.30792 | 4.77597 | 4 ft | 20 kts | 5° |
| 2026-04-27 04:00 | 52.30931 | 4.77616 | 4 ft | 20 kts | 5° |
| 2026-04-27 04:00 | 52.31071 | 4.77623 | 4 ft | 20 kts | 1° |
| 2026-04-27 04:00 | 52.31211 | 4.77636 | 4 ft | 20 kts | 3° |
| 2026-04-27 04:01 | 52.31351 | 4.77649 | 4 ft | 20 kts | 3° |
| 2026-04-27 04:01 | 52.31483 | 4.77597 | 4 ft | 20 kts | 326° |
| 2026-04-27 04:01 | 52.31566 | 4.77422 | 4 ft | 20 kts | 287° |
| 2026-04-27 04:01 | 52.31571 | 4.77199 | 4 ft | 20 kts | 267° |
| 2026-04-27 04:02 | 52.31563 | 4.76968 | 4 ft | 20 kts | 267° |
| 2026-04-27 04:02 | 52.31552 | 4.76740 | 4 ft | 20 kts | 264° |
| 2026-04-27 04:02 | 52.31533 | 4.76554 | 4 ft | 12 kts | 240° |
| 2026-04-27 04:02 | 52.31471 | 4.76461 | 4 ft | 12 kts | 227° |
| 2026-04-27 04:03 | 52.31431 | 4.76367 | 4 ft | 9 kts | 230° |
| 2026-04-27 04:03 | 52.31395 | 4.76312 | 4 ft | 0 kts | 210° |
| 2026-04-27 04:03 | 52.31393 | 4.76310 | 4 ft | 1 kts | 210° |
| 2026-04-27 04:03 | 52.31385 | 4.76300 | 4 ft | 2 kts | 215° |
| 2026-04-27 04:04 | 52.31374 | 4.76290 | 4 ft | 0 kts | 212° |
| 2026-04-27 04:04 | 52.31374 | 4.76289 | 4 ft | 0 kts | 212° |